<?xml version="1.0" encoding="UTF-8" standalone="yes"?>
<gpx
 xmlns="http://www.topografix.com/GPX/1/1"
 creator="OziExplorer Version 3956f - http://www.oziexplorer.com"
 version="1.1"
 xmlns:xsi="http://www.w3.org/2001/XMLSchema-instance"
 xsi:schemaLocation="http://www.topografix.com/GPX/1/1 http://www.topografix.com/GPX/1/1/gpx.xsd">
<metadata>
 <time>2016-05-04T07:51:27Z</time>
 <bounds minlat="31.705030" minlon="34.966440" maxlat="31.739420" maxlon="35.054450"/>
</metadata>
<trk>
 <name>jamal_izm</name>
 <desc>Beit_Jamal_Izm, 28 km.             </desc>
<trkseg>
<trkpt lat="31.7394200" lon="34.9730200">
<ele>212.500000</ele>
<time>2009-10-17T05:39:35.000Z</time>
</trkpt>
<trkpt lat="31.7392000" lon="34.9729600">
<ele>212.400009</ele>
<time>2009-10-17T05:39:54.000Z</time>
</trkpt>
<trkpt lat="31.7387800" lon="34.9728600">
<ele>212.100006</ele>
<time>2009-10-17T05:40:06.000Z</time>
</trkpt>
<trkpt lat="31.7382300" lon="34.9727800">
<ele>215.800003</ele>
<time>2009-10-17T05:40:21.000Z</time>
</trkpt>
<trkpt lat="31.7377000" lon="34.9726800">
<ele>220.000000</ele>
<time>2009-10-17T05:40:40.000Z</time>
</trkpt>
<trkpt lat="31.7373000" lon="34.9725900">
<ele>223.600006</ele>
<time>2009-10-17T05:40:56.000Z</time>
</trkpt>
<trkpt lat="31.7370700" lon="34.9725200">
<ele>225.800003</ele>
<time>2009-10-17T05:41:08.000Z</time>
</trkpt>
<trkpt lat="31.7368300" lon="34.9724200">
<ele>231.099991</ele>
<time>2009-10-17T05:41:24.000Z</time>
</trkpt>
<trkpt lat="31.7368200" lon="34.9723900">
<ele>231.300003</ele>
<time>2009-10-17T05:41:27.000Z</time>
</trkpt>
<trkpt lat="31.7368900" lon="34.9719900">
<ele>229.400009</ele>
<time>2009-10-17T05:41:42.000Z</time>
</trkpt>
<trkpt lat="31.7367500" lon="34.9716100">
<ele>231.900009</ele>
<time>2009-10-17T05:41:54.000Z</time>
</trkpt>
<trkpt lat="31.7364600" lon="34.9711500">
<ele>237.199997</ele>
<time>2009-10-17T05:42:10.000Z</time>
</trkpt>
<trkpt lat="31.7361500" lon="34.9704900">
<ele>238.699997</ele>
<time>2009-10-17T05:42:25.000Z</time>
</trkpt>
<trkpt lat="31.7360600" lon="34.9695800">
<ele>235.899994</ele>
<time>2009-10-17T05:42:40.000Z</time>
</trkpt>
<trkpt lat="31.7358800" lon="34.9689200">
<ele>234.600006</ele>
<time>2009-10-17T05:42:51.000Z</time>
</trkpt>
<trkpt lat="31.7358500" lon="34.9687800">
<ele>234.000000</ele>
<time>2009-10-17T05:42:54.000Z</time>
</trkpt>
<trkpt lat="31.7358600" lon="34.9681600">
<ele>231.399994</ele>
<time>2009-10-17T05:43:07.000Z</time>
</trkpt>
<trkpt lat="31.7357100" lon="34.9678600">
<ele>230.600006</ele>
<time>2009-10-17T05:43:17.000Z</time>
</trkpt>
<trkpt lat="31.7355100" lon="34.9675200">
<ele>230.400009</ele>
<time>2009-10-17T05:43:31.000Z</time>
</trkpt>
<trkpt lat="31.7351200" lon="34.9672600">
<ele>230.000000</ele>
<time>2009-10-17T05:43:49.000Z</time>
</trkpt>
<trkpt lat="31.7348100" lon="34.9672600">
<ele>229.800003</ele>
<time>2009-10-17T05:44:01.000Z</time>
</trkpt>
<trkpt lat="31.7344500" lon="34.9671200">
<ele>229.800003</ele>
<time>2009-10-17T05:44:13.000Z</time>
</trkpt>
<trkpt lat="31.7341500" lon="34.9671900">
<ele>231.300003</ele>
<time>2009-10-17T05:44:24.000Z</time>
</trkpt>
<trkpt lat="31.7336900" lon="34.9672300">
<ele>233.299988</ele>
<time>2009-10-17T05:44:38.000Z</time>
</trkpt>
<trkpt lat="31.7335800" lon="34.9672600">
<ele>233.800003</ele>
<time>2009-10-17T05:44:42.000Z</time>
</trkpt>
<trkpt lat="31.7335500" lon="34.9674200">
<ele>233.599991</ele>
<time>2009-10-17T05:44:47.000Z</time>
</trkpt>
<trkpt lat="31.7335600" lon="34.9675100">
<ele>233.400009</ele>
<time>2009-10-17T05:44:51.000Z</time>
</trkpt>
<trkpt lat="31.7334700" lon="34.9676000">
<ele>233.400009</ele>
<time>2009-10-17T05:44:55.000Z</time>
</trkpt>
<trkpt lat="31.7328400" lon="34.9677100">
<ele>233.599991</ele>
<time>2009-10-17T05:45:14.000Z</time>
</trkpt>
<trkpt lat="31.7322100" lon="34.9678800">
<ele>232.399994</ele>
<time>2009-10-17T05:45:32.000Z</time>
</trkpt>
<trkpt lat="31.7313800" lon="34.9683100">
<ele>235.500000</ele>
<time>2009-10-17T05:45:53.000Z</time>
</trkpt>
<trkpt lat="31.7310400" lon="34.9684000">
<ele>236.500000</ele>
<time>2009-10-17T05:46:01.000Z</time>
</trkpt>
<trkpt lat="31.7307800" lon="34.9684000">
<ele>237.600006</ele>
<time>2009-10-17T05:46:08.000Z</time>
</trkpt>
<trkpt lat="31.7300900" lon="34.9681700">
<ele>239.399994</ele>
<time>2009-10-17T05:46:27.000Z</time>
</trkpt>
<trkpt lat="31.7294000" lon="34.9678400">
<ele>238.600006</ele>
<time>2009-10-17T05:46:46.000Z</time>
</trkpt>
<trkpt lat="31.7287500" lon="34.9675300">
<ele>242.900009</ele>
<time>2009-10-17T05:47:05.000Z</time>
</trkpt>
<trkpt lat="31.7282300" lon="34.9675100">
<ele>244.899994</ele>
<time>2009-10-17T05:47:21.000Z</time>
</trkpt>
<trkpt lat="31.7277500" lon="34.9674300">
<ele>246.200012</ele>
<time>2009-10-17T05:47:38.000Z</time>
</trkpt>
<trkpt lat="31.7273000" lon="34.9672200">
<ele>245.900009</ele>
<time>2009-10-17T05:47:57.000Z</time>
</trkpt>
<trkpt lat="31.7268700" lon="34.9671000">
<ele>246.200012</ele>
<time>2009-10-17T05:48:16.000Z</time>
</trkpt>
<trkpt lat="31.7262700" lon="34.9669200">
<ele>248.900009</ele>
<time>2009-10-17T05:48:36.000Z</time>
</trkpt>
<trkpt lat="31.7255700" lon="34.9666300">
<ele>250.400009</ele>
<time>2009-10-17T05:48:58.000Z</time>
</trkpt>
<trkpt lat="31.7251000" lon="34.9664400">
<ele>249.699997</ele>
<time>2009-10-17T05:49:13.000Z</time>
</trkpt>
<trkpt lat="31.7245200" lon="34.9665800">
<ele>251.599991</ele>
<time>2009-10-17T05:49:30.000Z</time>
</trkpt>
<trkpt lat="31.7240400" lon="34.9666700">
<ele>253.300003</ele>
<time>2009-10-17T05:49:48.000Z</time>
</trkpt>
<trkpt lat="31.7236200" lon="34.9666500">
<ele>253.600006</ele>
<time>2009-10-17T05:50:03.000Z</time>
</trkpt>
<trkpt lat="31.7233800" lon="34.9668500">
<ele>253.600006</ele>
<time>2009-10-17T05:50:15.000Z</time>
</trkpt>
<trkpt lat="31.7232400" lon="34.9670200">
<ele>253.600006</ele>
<time>2009-10-17T05:50:26.000Z</time>
</trkpt>
<trkpt lat="31.7229900" lon="34.9673600">
<ele>256.800018</ele>
<time>2009-10-17T05:50:43.000Z</time>
</trkpt>
<trkpt lat="31.7227700" lon="34.9677300">
<ele>262.100006</ele>
<time>2009-10-17T05:51:01.000Z</time>
</trkpt>
<trkpt lat="31.7225000" lon="34.9682300">
<ele>267.600006</ele>
<time>2009-10-17T05:51:23.000Z</time>
</trkpt>
<trkpt lat="31.7223400" lon="34.9686400">
<ele>270.700012</ele>
<time>2009-10-17T05:51:41.000Z</time>
</trkpt>
<trkpt lat="31.7223000" lon="34.9690700">
<ele>272.600006</ele>
<time>2009-10-17T05:52:02.000Z</time>
</trkpt>
<trkpt lat="31.7222900" lon="34.9692300">
<ele>273.199982</ele>
<time>2009-10-17T05:52:15.000Z</time>
</trkpt>
<trkpt lat="31.7222600" lon="34.9694800">
<ele>274.100006</ele>
<time>2009-10-17T05:53:24.000Z</time>
</trkpt>
<trkpt lat="31.7223000" lon="34.9699200">
<ele>276.000000</ele>
<time>2009-10-17T05:53:43.000Z</time>
</trkpt>
<trkpt lat="31.7223600" lon="34.9703500">
<ele>278.000000</ele>
<time>2009-10-17T05:54:02.000Z</time>
</trkpt>
<trkpt lat="31.7224100" lon="34.9707000">
<ele>281.399994</ele>
<time>2009-10-17T05:54:18.000Z</time>
</trkpt>
<trkpt lat="31.7224600" lon="34.9710800">
<ele>285.100006</ele>
<time>2009-10-17T05:54:37.000Z</time>
</trkpt>
<trkpt lat="31.7224200" lon="34.9713900">
<ele>288.600006</ele>
<time>2009-10-17T05:54:52.000Z</time>
</trkpt>
<trkpt lat="31.7224100" lon="34.9717700">
<ele>292.500000</ele>
<time>2009-10-17T05:55:11.000Z</time>
</trkpt>
<trkpt lat="31.7223400" lon="34.9721600">
<ele>297.100006</ele>
<time>2009-10-17T05:55:31.000Z</time>
</trkpt>
<trkpt lat="31.7222500" lon="34.9724500">
<ele>299.600006</ele>
<time>2009-10-17T05:55:50.000Z</time>
</trkpt>
<trkpt lat="31.7222600" lon="34.9727300">
<ele>301.000000</ele>
<time>2009-10-17T05:56:06.000Z</time>
</trkpt>
<trkpt lat="31.7222700" lon="34.9729200">
<ele>301.899994</ele>
<time>2009-10-17T05:56:18.000Z</time>
</trkpt>
<trkpt lat="31.7222900" lon="34.9731600">
<ele>303.899994</ele>
<time>2009-10-17T05:56:37.000Z</time>
</trkpt>
<trkpt lat="31.7223300" lon="34.9733800">
<ele>305.700012</ele>
<time>2009-10-17T05:56:53.000Z</time>
</trkpt>
<trkpt lat="31.7224400" lon="34.9736800">
<ele>308.100006</ele>
<time>2009-10-17T05:57:14.000Z</time>
</trkpt>
<trkpt lat="31.7225600" lon="34.9739800">
<ele>309.199982</ele>
<time>2009-10-17T05:57:32.000Z</time>
</trkpt>
<trkpt lat="31.7226800" lon="34.9742500">
<ele>309.799988</ele>
<time>2009-10-17T05:57:51.000Z</time>
</trkpt>
<trkpt lat="31.7228200" lon="34.9745000">
<ele>310.200012</ele>
<time>2009-10-17T05:58:10.000Z</time>
</trkpt>
<trkpt lat="31.7229600" lon="34.9747100">
<ele>312.000000</ele>
<time>2009-10-17T05:58:26.000Z</time>
</trkpt>
<trkpt lat="31.7231200" lon="34.9748700">
<ele>316.200012</ele>
<time>2009-10-17T05:58:44.000Z</time>
</trkpt>
<trkpt lat="31.7233100" lon="34.9750400">
<ele>319.700012</ele>
<time>2009-10-17T05:59:04.000Z</time>
</trkpt>
<trkpt lat="31.7235000" lon="34.9751900">
<ele>321.800018</ele>
<time>2009-10-17T05:59:23.000Z</time>
</trkpt>
<trkpt lat="31.7236000" lon="34.9753000">
<ele>322.000000</ele>
<time>2009-10-17T05:59:34.000Z</time>
</trkpt>
<trkpt lat="31.7236300" lon="34.9754000">
<ele>321.300018</ele>
<time>2009-10-17T05:59:42.000Z</time>
</trkpt>
<trkpt lat="31.7236300" lon="34.9754600">
<ele>321.399994</ele>
<time>2009-10-17T05:59:46.000Z</time>
</trkpt>
<trkpt lat="31.7236500" lon="34.9757200">
<ele>323.199982</ele>
<time>2009-10-17T06:00:05.000Z</time>
</trkpt>
<trkpt lat="31.7236500" lon="34.9760100">
<ele>325.100006</ele>
<time>2009-10-17T06:00:25.000Z</time>
</trkpt>
<trkpt lat="31.7235800" lon="34.9762300">
<ele>326.900024</ele>
<time>2009-10-17T06:00:44.000Z</time>
</trkpt>
<trkpt lat="31.7235800" lon="34.9762700">
<ele>327.399994</ele>
<time>2009-10-17T06:02:47.000Z</time>
</trkpt>
<trkpt lat="31.7234900" lon="34.9764000">
<ele>330.299988</ele>
<time>2009-10-17T06:03:06.000Z</time>
</trkpt>
<trkpt lat="31.7234600" lon="34.9764100">
<ele>330.700012</ele>
<time>2009-10-17T06:03:15.000Z</time>
</trkpt>
<trkpt lat="31.7234000" lon="34.9764200">
<ele>331.199982</ele>
<time>2009-10-17T06:03:19.000Z</time>
</trkpt>
<trkpt lat="31.7231700" lon="34.9764600">
<ele>333.399994</ele>
<time>2009-10-17T06:03:34.000Z</time>
</trkpt>
<trkpt lat="31.7229600" lon="34.9765500">
<ele>336.500031</ele>
<time>2009-10-17T06:03:52.000Z</time>
</trkpt>
<trkpt lat="31.7227900" lon="34.9766300">
<ele>339.299988</ele>
<time>2009-10-17T06:04:05.000Z</time>
</trkpt>
<trkpt lat="31.7227700" lon="34.9766400">
<ele>339.700012</ele>
<time>2009-10-17T06:04:08.000Z</time>
</trkpt>
<trkpt lat="31.7227100" lon="34.9766600">
<ele>340.600006</ele>
<time>2009-10-17T06:04:12.000Z</time>
</trkpt>
<trkpt lat="31.7227400" lon="34.9767400">
<ele>341.899994</ele>
<time>2009-10-17T06:04:20.000Z</time>
</trkpt>
<trkpt lat="31.7229400" lon="34.9767900">
<ele>341.200012</ele>
<time>2009-10-17T06:04:38.000Z</time>
</trkpt>
<trkpt lat="31.7231600" lon="34.9768500">
<ele>340.799988</ele>
<time>2009-10-17T06:04:55.000Z</time>
</trkpt>
<trkpt lat="31.7233400" lon="34.9768700">
<ele>340.000000</ele>
<time>2009-10-17T06:05:10.000Z</time>
</trkpt>
<trkpt lat="31.7235800" lon="34.9769600">
<ele>340.000000</ele>
<time>2009-10-17T06:07:37.000Z</time>
</trkpt>
<trkpt lat="31.7242290" lon="34.9771400">
<ele>347.100006</ele>
<time>2009-10-17T06:08:27.000Z</time>
</trkpt>
<trkpt lat="31.7234530" lon="34.9771510">
<ele>344.500000</ele>
<time>2016-05-04T07:39:16.000Z</time>
</trkpt>
<trkpt lat="31.7225120" lon="34.9772040">
<ele>353.000000</ele>
<time>2016-05-04T07:38:57.000Z</time>
</trkpt>
<trkpt lat="31.7221560" lon="34.9770750">
<ele>354.099976</ele>
<time>2016-05-04T07:39:03.000Z</time>
</trkpt>
<trkpt lat="31.7219190" lon="34.9768820">
<ele>350.299988</ele>
<time>2016-05-04T07:38:55.000Z</time>
</trkpt>
<trkpt lat="31.7215910" lon="34.9769470">
<ele>350.899994</ele>
<time>2016-05-04T07:39:18.000Z</time>
</trkpt>
<trkpt lat="31.7208600" lon="34.9771400">
<ele>354.699982</ele>
<time>2016-05-04T07:38:59.000Z</time>
</trkpt>
<trkpt lat="31.7203210" lon="34.9770220">
<ele>357.200012</ele>
<time>2016-05-04T07:38:54.000Z</time>
</trkpt>
<trkpt lat="31.7198850" lon="34.9764530">
<ele>360.100006</ele>
<time>2016-05-04T07:39:22.000Z</time>
</trkpt>
<trkpt lat="31.7195200" lon="34.9757880">
<ele>361.000000</ele>
<time>2016-05-04T07:39:21.000Z</time>
</trkpt>
<trkpt lat="31.7191180" lon="34.9754880">
<ele>357.900024</ele>
<time>2016-05-04T07:39:25.000Z</time>
</trkpt>
<trkpt lat="31.7187900" lon="34.9753270">
<ele>355.500000</ele>
<time>2016-05-04T07:39:24.000Z</time>
</trkpt>
<trkpt lat="31.7184610" lon="34.9751440">
<ele>351.099976</ele>
<time>2016-05-04T07:39:27.000Z</time>
</trkpt>
<trkpt lat="31.7181240" lon="34.9751230">
<ele>347.700012</ele>
<time>2016-05-04T07:39:31.000Z</time>
</trkpt>
<trkpt lat="31.7179230" lon="34.9749730">
<ele>346.099976</ele>
<time>2016-05-04T07:39:30.000Z</time>
</trkpt>
<trkpt lat="31.7177880" lon="34.9749830">
<ele>344.500000</ele>
<time>2016-05-04T07:38:24.000Z</time>
</trkpt>
<trkpt lat="31.7172380" lon="34.9742750">
<ele>343.300018</ele>
<time>2016-05-04T07:39:33.000Z</time>
</trkpt>
<trkpt lat="31.7168610" lon="34.9733740">
<ele>337.000000</ele>
<time>2016-05-04T07:38:44.000Z</time>
</trkpt>
<trkpt lat="31.7164990" lon="34.9730200">
<ele>326.500000</ele>
<time>2016-05-04T07:39:43.000Z</time>
</trkpt>
<trkpt lat="31.7162440" lon="34.9726870">
<ele>317.400024</ele>
<time>2016-05-04T07:39:41.000Z</time>
</trkpt>
<trkpt lat="31.7158880" lon="34.9726020">
<ele>306.699982</ele>
<time>2016-05-04T07:39:40.000Z</time>
</trkpt>
<trkpt lat="31.7155770" lon="34.9728910">
<ele>300.399994</ele>
<time>2016-05-04T07:39:45.000Z</time>
</trkpt>
<trkpt lat="31.7153130" lon="34.9731060">
<ele>295.300018</ele>
<time>2016-05-04T07:39:44.000Z</time>
</trkpt>
<trkpt lat="31.7151580" lon="34.9735890">
<ele>295.200012</ele>
<time>2016-05-04T07:39:36.000Z</time>
</trkpt>
<trkpt lat="31.7149570" lon="34.9734060">
<ele>291.199982</ele>
<time>2016-05-04T07:39:47.000Z</time>
</trkpt>
<trkpt lat="31.7147100" lon="34.9735780">
<ele>288.200012</ele>
<time>2016-05-04T07:39:39.000Z</time>
</trkpt>
<trkpt lat="31.7150030" lon="34.9750480">
<ele>291.300018</ele>
<time>2016-05-04T07:39:56.000Z</time>
</trkpt>
<trkpt lat="31.7152030" lon="34.9760030">
<ele>294.199982</ele>
<time>2016-05-04T07:39:53.000Z</time>
</trkpt>
<trkpt lat="31.7150570" lon="34.9770540">
<ele>295.100006</ele>
<time>2016-05-04T07:39:58.000Z</time>
</trkpt>
<trkpt lat="31.7148200" lon="34.9773600">
<ele>294.799988</ele>
<time>2009-10-17T07:12:45.000Z</time>
</trkpt>
<trkpt lat="31.7147100" lon="34.9776300">
<ele>294.899994</ele>
<time>2009-10-17T07:13:02.000Z</time>
</trkpt>
<trkpt lat="31.7146700" lon="34.9777300">
<ele>294.899994</ele>
<time>2009-10-17T07:13:10.000Z</time>
</trkpt>
<trkpt lat="31.7145800" lon="34.9779400">
<ele>295.100006</ele>
<time>2009-10-17T07:13:26.000Z</time>
</trkpt>
<trkpt lat="31.7145000" lon="34.9781700">
<ele>296.699982</ele>
<time>2009-10-17T07:13:35.000Z</time>
</trkpt>
<trkpt lat="31.7144400" lon="34.9781700">
<ele>297.200012</ele>
<time>2009-10-17T07:13:39.000Z</time>
</trkpt>
<trkpt lat="31.7141200" lon="34.9781600">
<ele>300.100006</ele>
<time>2009-10-17T07:13:53.000Z</time>
</trkpt>
<trkpt lat="31.7140400" lon="34.9784400">
<ele>300.100006</ele>
<time>2009-10-17T07:14:06.000Z</time>
</trkpt>
<trkpt lat="31.7139900" lon="34.9787300">
<ele>299.500000</ele>
<time>2009-10-17T07:14:20.000Z</time>
</trkpt>
<trkpt lat="31.7138100" lon="34.9790400">
<ele>299.600006</ele>
<time>2009-10-17T07:14:36.000Z</time>
</trkpt>
<trkpt lat="31.7136100" lon="34.9794200">
<ele>299.800018</ele>
<time>2009-10-17T07:14:51.000Z</time>
</trkpt>
<trkpt lat="31.7134100" lon="34.9798400">
<ele>301.500000</ele>
<time>2009-10-17T07:15:09.000Z</time>
</trkpt>
<trkpt lat="31.7132900" lon="34.9802700">
<ele>304.000000</ele>
<time>2009-10-17T07:15:25.000Z</time>
</trkpt>
<trkpt lat="31.7132000" lon="34.9806900">
<ele>304.799988</ele>
<time>2009-10-17T07:15:40.000Z</time>
</trkpt>
<trkpt lat="31.7131500" lon="34.9809500">
<ele>304.600006</ele>
<time>2009-10-17T07:15:49.000Z</time>
</trkpt>
<trkpt lat="31.7131400" lon="34.9810100">
<ele>304.500000</ele>
<time>2009-10-17T07:15:59.000Z</time>
</trkpt>
<trkpt lat="31.7130900" lon="34.9810700">
<ele>304.500000</ele>
<time>2009-10-17T07:16:08.000Z</time>
</trkpt>
<trkpt lat="31.7130700" lon="34.9814600">
<ele>304.700012</ele>
<time>2009-10-17T07:16:23.000Z</time>
</trkpt>
<trkpt lat="31.7130600" lon="34.9821200">
<ele>306.500000</ele>
<time>2009-10-17T07:16:43.000Z</time>
</trkpt>
<trkpt lat="31.7130500" lon="34.9825400">
<ele>308.100006</ele>
<time>2009-10-17T07:16:58.000Z</time>
</trkpt>
<trkpt lat="31.7130960" lon="34.9837810">
<ele>315.000000</ele>
<time>2016-05-04T07:43:41.000Z</time>
</trkpt>
<trkpt lat="31.7128950" lon="34.9855400">
<ele>326.600006</ele>
<time>2016-05-04T07:43:38.000Z</time>
</trkpt>
<trkpt lat="31.7124940" lon="34.9880510">
<ele>341.599976</ele>
<time>2016-05-04T07:43:34.000Z</time>
</trkpt>
<trkpt lat="31.7125850" lon="34.9890810">
<ele>348.100006</ele>
<time>2016-05-04T07:43:33.000Z</time>
</trkpt>
<trkpt lat="31.7118550" lon="34.9902180">
<ele>346.000031</ele>
<time>2016-05-04T07:43:36.000Z</time>
</trkpt>
<trkpt lat="31.7111250" lon="34.9909690">
<ele>347.200012</ele>
<time>2016-05-04T07:43:31.000Z</time>
</trkpt>
<trkpt lat="31.7090250" lon="34.9907330">
<ele>337.699982</ele>
<time>2016-05-04T07:43:22.000Z</time>
</trkpt>
<trkpt lat="31.7087880" lon="34.9909480">
<ele>336.899994</ele>
<time>2016-05-04T07:43:29.000Z</time>
</trkpt>
<trkpt lat="31.7084960" lon="34.9919780">
<ele>342.199982</ele>
<time>2016-05-04T07:43:27.000Z</time>
</trkpt>
<trkpt lat="31.7083860" lon="34.9957970">
<ele>355.700012</ele>
<time>2016-05-04T07:43:24.000Z</time>
</trkpt>
<trkpt lat="31.7075470" lon="34.9993810">
<ele>372.299988</ele>
<time>2016-05-04T07:43:25.000Z</time>
</trkpt>
<trkpt lat="31.7070900" lon="35.0005600">
<ele>380.000000</ele>
<time>2009-10-17T07:30:40.000Z</time>
</trkpt>
<trkpt lat="31.7069800" lon="35.0008000">
<ele>380.599976</ele>
<time>2009-10-17T07:30:55.000Z</time>
</trkpt>
<trkpt lat="31.7069400" lon="35.0008600">
<ele>380.899994</ele>
<time>2009-10-17T07:31:11.000Z</time>
</trkpt>
<trkpt lat="31.7068200" lon="35.0011100">
<ele>381.600006</ele>
<time>2009-10-17T07:32:13.000Z</time>
</trkpt>
<trkpt lat="31.7064800" lon="35.0015800">
<ele>391.899994</ele>
<time>2009-10-17T07:32:31.000Z</time>
</trkpt>
<trkpt lat="31.7059800" lon="35.0022900">
<ele>393.600006</ele>
<time>2009-10-17T07:32:50.000Z</time>
</trkpt>
<trkpt lat="31.7054100" lon="35.0031200">
<ele>394.899994</ele>
<time>2009-10-17T07:33:05.000Z</time>
</trkpt>
<trkpt lat="31.7053700" lon="35.0031900">
<ele>394.800018</ele>
<time>2009-10-17T07:33:06.000Z</time>
</trkpt>
<trkpt lat="31.7051900" lon="35.0036000">
<ele>393.300018</ele>
<time>2009-10-17T07:33:10.000Z</time>
</trkpt>
<trkpt lat="31.7050500" lon="35.0042200">
<ele>388.299988</ele>
<time>2009-10-17T07:33:17.000Z</time>
</trkpt>
<trkpt lat="31.7050300" lon="35.0044600">
<ele>385.600006</ele>
<time>2009-10-17T07:33:18.000Z</time>
</trkpt>
<trkpt lat="31.7050400" lon="35.0048200">
<ele>382.399994</ele>
<time>2009-10-17T07:33:22.000Z</time>
</trkpt>
<trkpt lat="31.7051500" lon="35.0054300">
<ele>376.399994</ele>
<time>2009-10-17T07:33:26.000Z</time>
</trkpt>
<trkpt lat="31.7054000" lon="35.0060300">
<ele>369.399994</ele>
<time>2009-10-17T07:33:32.000Z</time>
</trkpt>
<trkpt lat="31.7054700" lon="35.0061400">
<ele>367.799988</ele>
<time>2009-10-17T07:33:33.000Z</time>
</trkpt>
<trkpt lat="31.7059200" lon="35.0067600">
<ele>363.200012</ele>
<time>2009-10-17T07:33:38.000Z</time>
</trkpt>
<trkpt lat="31.7064100" lon="35.0074300">
<ele>359.799988</ele>
<time>2009-10-17T07:33:48.000Z</time>
</trkpt>
<trkpt lat="31.7066000" lon="35.0076600">
<ele>359.000000</ele>
<time>2009-10-17T07:33:54.000Z</time>
</trkpt>
<trkpt lat="31.7066200" lon="35.0076800">
<ele>358.899994</ele>
<time>2009-10-17T07:33:56.000Z</time>
</trkpt>
<trkpt lat="31.7070200" lon="35.0073800">
<ele>352.200012</ele>
<time>2009-10-17T07:35:02.000Z</time>
</trkpt>
<trkpt lat="31.7071100" lon="35.0073100">
<ele>350.799988</ele>
<time>2009-10-17T07:35:03.000Z</time>
</trkpt>
<trkpt lat="31.7076200" lon="35.0069100">
<ele>345.199982</ele>
<time>2009-10-17T07:35:13.000Z</time>
</trkpt>
<trkpt lat="31.7080000" lon="35.0066200">
<ele>341.200012</ele>
<time>2009-10-17T07:35:18.000Z</time>
</trkpt>
<trkpt lat="31.7083500" lon="35.0063600">
<ele>339.399994</ele>
<time>2009-10-17T07:35:22.000Z</time>
</trkpt>
<trkpt lat="31.7086400" lon="35.0061800">
<ele>338.800018</ele>
<time>2009-10-17T07:35:25.000Z</time>
</trkpt>
<trkpt lat="31.7090700" lon="35.0059900">
<ele>337.300018</ele>
<time>2009-10-17T07:35:29.000Z</time>
</trkpt>
<trkpt lat="31.7094200" lon="35.0059100">
<ele>336.399994</ele>
<time>2009-10-17T07:35:32.000Z</time>
</trkpt>
<trkpt lat="31.7100400" lon="35.0059000">
<ele>335.200012</ele>
<time>2009-10-17T07:35:37.000Z</time>
</trkpt>
<trkpt lat="31.7104100" lon="35.0059600">
<ele>333.800018</ele>
<time>2009-10-17T07:35:40.000Z</time>
</trkpt>
<trkpt lat="31.7108000" lon="35.0060500">
<ele>331.299988</ele>
<time>2009-10-17T07:35:42.000Z</time>
</trkpt>
<trkpt lat="31.7111700" lon="35.0061700">
<ele>328.299988</ele>
<time>2009-10-17T07:35:45.000Z</time>
</trkpt>
<trkpt lat="31.7120100" lon="35.0065000">
<ele>328.700012</ele>
<time>2009-10-17T07:35:52.000Z</time>
</trkpt>
<trkpt lat="31.7121300" lon="35.0065500">
<ele>328.400024</ele>
<time>2009-10-17T07:35:53.000Z</time>
</trkpt>
<trkpt lat="31.7134200" lon="35.0070600">
<ele>317.799988</ele>
<time>2009-10-17T07:36:07.000Z</time>
</trkpt>
<trkpt lat="31.7136600" lon="35.0071600">
<ele>316.299988</ele>
<time>2009-10-17T07:36:11.000Z</time>
</trkpt>
<trkpt lat="31.7136600" lon="35.0074200">
<ele>315.900024</ele>
<time>2009-10-17T07:36:18.000Z</time>
</trkpt>
<trkpt lat="31.7136200" lon="35.0074600">
<ele>316.000000</ele>
<time>2009-10-17T07:36:19.000Z</time>
</trkpt>
<trkpt lat="31.7133300" lon="35.0077300">
<ele>316.100006</ele>
<time>2009-10-17T07:36:30.000Z</time>
</trkpt>
<trkpt lat="31.7131800" lon="35.0080100">
<ele>316.200012</ele>
<time>2009-10-17T07:36:49.000Z</time>
</trkpt>
<trkpt lat="31.7131200" lon="35.0083000">
<ele>317.799988</ele>
<time>2009-10-17T07:37:06.000Z</time>
</trkpt>
<trkpt lat="31.7130400" lon="35.0085600">
<ele>318.900024</ele>
<time>2009-10-17T07:37:21.000Z</time>
</trkpt>
<trkpt lat="31.7128300" lon="35.0088400">
<ele>320.500000</ele>
<time>2009-10-17T07:37:37.000Z</time>
</trkpt>
<trkpt lat="31.7123700" lon="35.0092000">
<ele>324.299988</ele>
<time>2009-10-17T07:37:56.000Z</time>
</trkpt>
<trkpt lat="31.7117000" lon="35.0096300">
<ele>327.800018</ele>
<time>2009-10-17T07:38:16.000Z</time>
</trkpt>
<trkpt lat="31.7111400" lon="35.0100500">
<ele>330.399994</ele>
<time>2009-10-17T07:38:37.000Z</time>
</trkpt>
<trkpt lat="31.7109500" lon="35.0104200">
<ele>330.299988</ele>
<time>2009-10-17T07:38:50.000Z</time>
</trkpt>
<trkpt lat="31.7109700" lon="35.0109600">
<ele>332.200012</ele>
<time>2009-10-17T07:39:06.000Z</time>
</trkpt>
<trkpt lat="31.7111700" lon="35.0115400">
<ele>332.799988</ele>
<time>2009-10-17T07:39:28.000Z</time>
</trkpt>
<trkpt lat="31.7113900" lon="35.0120700">
<ele>336.600006</ele>
<time>2009-10-17T07:39:50.000Z</time>
</trkpt>
<trkpt lat="31.7115600" lon="35.0124300">
<ele>341.800018</ele>
<time>2009-10-17T07:40:11.000Z</time>
</trkpt>
<trkpt lat="31.7117400" lon="35.0127000">
<ele>344.800018</ele>
<time>2009-10-17T07:40:29.000Z</time>
</trkpt>
<trkpt lat="31.7119400" lon="35.0129900">
<ele>346.699982</ele>
<time>2009-10-17T07:40:48.000Z</time>
</trkpt>
<trkpt lat="31.7121900" lon="35.0133300">
<ele>349.699982</ele>
<time>2009-10-17T07:41:05.000Z</time>
</trkpt>
<trkpt lat="31.7123300" lon="35.0138000">
<ele>351.999969</ele>
<time>2009-10-17T07:41:23.000Z</time>
</trkpt>
<trkpt lat="31.7121400" lon="35.0140500">
<ele>355.000000</ele>
<time>2009-10-17T07:41:33.000Z</time>
</trkpt>
<trkpt lat="31.7120700" lon="35.0141500">
<ele>357.399994</ele>
<time>2009-10-17T07:44:49.000Z</time>
</trkpt>
<trkpt lat="31.7121400" lon="35.0143600">
<ele>361.600006</ele>
<time>2009-10-17T07:45:01.000Z</time>
</trkpt>
<trkpt lat="31.7123000" lon="35.0148700">
<ele>369.399994</ele>
<time>2009-10-17T07:45:19.000Z</time>
</trkpt>
<trkpt lat="31.7124200" lon="35.0152200">
<ele>372.299988</ele>
<time>2009-10-17T07:45:35.000Z</time>
</trkpt>
<trkpt lat="31.7125100" lon="35.0155500">
<ele>373.700012</ele>
<time>2009-10-17T07:45:49.000Z</time>
</trkpt>
<trkpt lat="31.7125700" lon="35.0158900">
<ele>375.499969</ele>
<time>2009-10-17T07:46:05.000Z</time>
</trkpt>
<trkpt lat="31.7127100" lon="35.0162400">
<ele>373.600006</ele>
<time>2009-10-17T07:46:24.000Z</time>
</trkpt>
<trkpt lat="31.7127500" lon="35.0163500">
<ele>372.200012</ele>
<time>2009-10-17T07:46:33.000Z</time>
</trkpt>
<trkpt lat="31.7127600" lon="35.0166600">
<ele>372.299988</ele>
<time>2009-10-17T07:46:52.000Z</time>
</trkpt>
<trkpt lat="31.7126500" lon="35.0169000">
<ele>376.500000</ele>
<time>2009-10-17T07:47:03.000Z</time>
</trkpt>
<trkpt lat="31.7123300" lon="35.0172700">
<ele>384.600006</ele>
<time>2009-10-17T07:47:19.000Z</time>
</trkpt>
<trkpt lat="31.7119100" lon="35.0176600">
<ele>387.999969</ele>
<time>2009-10-17T07:47:34.000Z</time>
</trkpt>
<trkpt lat="31.7117900" lon="35.0178000">
<ele>389.199982</ele>
<time>2009-10-17T07:47:46.000Z</time>
</trkpt>
<trkpt lat="31.7117000" lon="35.0179800">
<ele>389.399994</ele>
<time>2009-10-17T07:48:14.000Z</time>
</trkpt>
<trkpt lat="31.7115000" lon="35.0181700">
<ele>394.800018</ele>
<time>2009-10-17T07:48:28.000Z</time>
</trkpt>
<trkpt lat="31.7113800" lon="35.0182600">
<ele>397.800018</ele>
<time>2009-10-17T07:48:40.000Z</time>
</trkpt>
<trkpt lat="31.7112700" lon="35.0184200">
<ele>399.399994</ele>
<time>2009-10-17T07:48:58.000Z</time>
</trkpt>
<trkpt lat="31.7112400" lon="35.0184800">
<ele>399.399994</ele>
<time>2009-10-17T07:49:03.000Z</time>
</trkpt>
<trkpt lat="31.7112400" lon="35.0185300">
<ele>398.899994</ele>
<time>2009-10-17T07:49:07.000Z</time>
</trkpt>
<trkpt lat="31.7112600" lon="35.0187200">
<ele>396.099976</ele>
<time>2009-10-17T07:49:22.000Z</time>
</trkpt>
<trkpt lat="31.7112700" lon="35.0188200">
<ele>396.200012</ele>
<time>2009-10-17T07:49:30.000Z</time>
</trkpt>
<trkpt lat="31.7114900" lon="35.0191000">
<ele>393.300018</ele>
<time>2009-10-17T07:49:46.000Z</time>
</trkpt>
<trkpt lat="31.7116900" lon="35.0195100">
<ele>392.199982</ele>
<time>2009-10-17T07:50:01.000Z</time>
</trkpt>
<trkpt lat="31.7118200" lon="35.0199500">
<ele>393.600006</ele>
<time>2009-10-17T07:50:20.000Z</time>
</trkpt>
<trkpt lat="31.7118800" lon="35.0202300">
<ele>394.500000</ele>
<time>2009-10-17T07:50:35.000Z</time>
</trkpt>
<trkpt lat="31.7119400" lon="35.0204200">
<ele>393.900024</ele>
<time>2009-10-17T07:50:55.000Z</time>
</trkpt>
<trkpt lat="31.7120600" lon="35.0208000">
<ele>392.700012</ele>
<time>2009-10-17T07:51:14.000Z</time>
</trkpt>
<trkpt lat="31.7120800" lon="35.0212200">
<ele>395.899994</ele>
<time>2009-10-17T07:51:34.000Z</time>
</trkpt>
<trkpt lat="31.7118600" lon="35.0215900">
<ele>404.099976</ele>
<time>2009-10-17T07:51:53.000Z</time>
</trkpt>
<trkpt lat="31.7116100" lon="35.0218600">
<ele>412.100006</ele>
<time>2009-10-17T07:52:15.000Z</time>
</trkpt>
<trkpt lat="31.7112900" lon="35.0220500">
<ele>422.000000</ele>
<time>2009-10-17T07:52:35.000Z</time>
</trkpt>
<trkpt lat="31.7112300" lon="35.0221000">
<ele>423.500000</ele>
<time>2009-10-17T07:52:40.000Z</time>
</trkpt>
<trkpt lat="31.7111500" lon="35.0222100">
<ele>425.000000</ele>
<time>2009-10-17T07:52:48.000Z</time>
</trkpt>
<trkpt lat="31.7110400" lon="35.0224000">
<ele>426.999969</ele>
<time>2009-10-17T07:53:05.000Z</time>
</trkpt>
<trkpt lat="31.7109600" lon="35.0225800">
<ele>428.399994</ele>
<time>2009-10-17T07:53:22.000Z</time>
</trkpt>
<trkpt lat="31.7109000" lon="35.0228700">
<ele>428.199982</ele>
<time>2009-10-17T07:53:38.000Z</time>
</trkpt>
<trkpt lat="31.7109100" lon="35.0231600">
<ele>428.299988</ele>
<time>2009-10-17T07:53:56.000Z</time>
</trkpt>
<trkpt lat="31.7109600" lon="35.0234300">
<ele>426.999969</ele>
<time>2009-10-17T07:54:16.000Z</time>
</trkpt>
<trkpt lat="31.7110000" lon="35.0235400">
<ele>425.499969</ele>
<time>2009-10-17T07:54:27.000Z</time>
</trkpt>
<trkpt lat="31.7110300" lon="35.0237800">
<ele>425.299988</ele>
<time>2009-10-17T07:54:46.000Z</time>
</trkpt>
<trkpt lat="31.7110800" lon="35.0240200">
<ele>427.200012</ele>
<time>2009-10-17T07:55:06.000Z</time>
</trkpt>
<trkpt lat="31.7111500" lon="35.0241600">
<ele>426.399994</ele>
<time>2009-10-17T07:55:22.000Z</time>
</trkpt>
<trkpt lat="31.7112600" lon="35.0244100">
<ele>426.500000</ele>
<time>2009-10-17T08:07:30.000Z</time>
</trkpt>
<trkpt lat="31.7113800" lon="35.0246500">
<ele>429.000000</ele>
<time>2009-10-17T08:07:49.000Z</time>
</trkpt>
<trkpt lat="31.7115000" lon="35.0248700">
<ele>430.899994</ele>
<time>2009-10-17T08:08:09.000Z</time>
</trkpt>
<trkpt lat="31.7116100" lon="35.0250700">
<ele>431.400024</ele>
<time>2009-10-17T08:08:25.000Z</time>
</trkpt>
<trkpt lat="31.7117300" lon="35.0252600">
<ele>430.200012</ele>
<time>2009-10-17T08:08:43.000Z</time>
</trkpt>
<trkpt lat="31.7118600" lon="35.0255300">
<ele>429.799988</ele>
<time>2009-10-17T08:09:05.000Z</time>
</trkpt>
<trkpt lat="31.7119600" lon="35.0257800">
<ele>431.400024</ele>
<time>2009-10-17T08:09:23.000Z</time>
</trkpt>
<trkpt lat="31.7120900" lon="35.0260000">
<ele>431.299988</ele>
<time>2009-10-17T08:09:42.000Z</time>
</trkpt>
<trkpt lat="31.7122500" lon="35.0262400">
<ele>434.799988</ele>
<time>2009-10-17T08:10:04.000Z</time>
</trkpt>
<trkpt lat="31.7123700" lon="35.0264900">
<ele>438.899994</ele>
<time>2009-10-17T08:10:24.000Z</time>
</trkpt>
<trkpt lat="31.7124700" lon="35.0267000">
<ele>441.299988</ele>
<time>2009-10-17T08:10:40.000Z</time>
</trkpt>
<trkpt lat="31.7126100" lon="35.0269600">
<ele>442.500000</ele>
<time>2009-10-17T08:11:01.000Z</time>
</trkpt>
<trkpt lat="31.7126500" lon="35.0270400">
<ele>442.600006</ele>
<time>2009-10-17T08:11:17.000Z</time>
</trkpt>
<trkpt lat="31.7127200" lon="35.0271900">
<ele>443.600006</ele>
<time>2009-10-17T08:11:45.000Z</time>
</trkpt>
<trkpt lat="31.7128600" lon="35.0275700">
<ele>447.399994</ele>
<time>2009-10-17T08:12:04.000Z</time>
</trkpt>
<trkpt lat="31.7130500" lon="35.0279200">
<ele>450.800018</ele>
<time>2009-10-17T08:12:24.000Z</time>
</trkpt>
<trkpt lat="31.7132300" lon="35.0281200">
<ele>451.500000</ele>
<time>2009-10-17T08:12:41.000Z</time>
</trkpt>
<trkpt lat="31.7133800" lon="35.0283700">
<ele>452.100006</ele>
<time>2009-10-17T08:13:01.000Z</time>
</trkpt>
<trkpt lat="31.7135700" lon="35.0286700">
<ele>450.399994</ele>
<time>2009-10-17T08:13:21.000Z</time>
</trkpt>
<trkpt lat="31.7137400" lon="35.0290400">
<ele>450.600006</ele>
<time>2009-10-17T08:13:43.000Z</time>
</trkpt>
<trkpt lat="31.7137500" lon="35.0292900">
<ele>454.699982</ele>
<time>2009-10-17T08:13:56.000Z</time>
</trkpt>
<trkpt lat="31.7137400" lon="35.0296400">
<ele>461.200012</ele>
<time>2009-10-17T08:14:16.000Z</time>
</trkpt>
<trkpt lat="31.7137300" lon="35.0299500">
<ele>465.699982</ele>
<time>2009-10-17T08:14:38.000Z</time>
</trkpt>
<trkpt lat="31.7136800" lon="35.0302500">
<ele>471.600006</ele>
<time>2009-10-17T08:14:58.000Z</time>
</trkpt>
<trkpt lat="31.7136300" lon="35.0305400">
<ele>475.100006</ele>
<time>2009-10-17T08:15:18.000Z</time>
</trkpt>
<trkpt lat="31.7136100" lon="35.0306200">
<ele>475.399994</ele>
<time>2009-10-17T08:15:35.000Z</time>
</trkpt>
<trkpt lat="31.7136000" lon="35.0307100">
<ele>475.299988</ele>
<time>2009-10-17T08:22:09.000Z</time>
</trkpt>
<trkpt lat="31.7135900" lon="35.0307900">
<ele>475.200012</ele>
<time>2009-10-17T08:23:23.000Z</time>
</trkpt>
<trkpt lat="31.7134600" lon="35.0311100">
<ele>478.000000</ele>
<time>2009-10-17T08:23:45.000Z</time>
</trkpt>
<trkpt lat="31.7133000" lon="35.0313600">
<ele>480.899994</ele>
<time>2009-10-17T08:24:04.000Z</time>
</trkpt>
<trkpt lat="31.7131300" lon="35.0315200">
<ele>483.700012</ele>
<time>2009-10-17T08:24:21.000Z</time>
</trkpt>
<trkpt lat="31.7129100" lon="35.0317200">
<ele>486.600006</ele>
<time>2009-10-17T08:24:41.000Z</time>
</trkpt>
<trkpt lat="31.7127200" lon="35.0318900">
<ele>488.800018</ele>
<time>2009-10-17T08:25:00.000Z</time>
</trkpt>
<trkpt lat="31.7125400" lon="35.0320300">
<ele>491.399994</ele>
<time>2009-10-17T08:25:18.000Z</time>
</trkpt>
<trkpt lat="31.7123200" lon="35.0322100">
<ele>494.700012</ele>
<time>2009-10-17T08:25:38.000Z</time>
</trkpt>
<trkpt lat="31.7121400" lon="35.0324000">
<ele>496.900024</ele>
<time>2009-10-17T08:25:57.000Z</time>
</trkpt>
<trkpt lat="31.7119500" lon="35.0325900">
<ele>498.500000</ele>
<time>2009-10-17T08:26:16.000Z</time>
</trkpt>
<trkpt lat="31.7117900" lon="35.0328300">
<ele>498.899994</ele>
<time>2009-10-17T08:26:35.000Z</time>
</trkpt>
<trkpt lat="31.7117200" lon="35.0329900">
<ele>499.399994</ele>
<time>2009-10-17T08:26:47.000Z</time>
</trkpt>
<trkpt lat="31.7116600" lon="35.0332200">
<ele>500.299988</ele>
<time>2009-10-17T08:27:03.000Z</time>
</trkpt>
<trkpt lat="31.7116500" lon="35.0335300">
<ele>499.600006</ele>
<time>2009-10-17T08:27:21.000Z</time>
</trkpt>
<trkpt lat="31.7116700" lon="35.0337800">
<ele>498.600006</ele>
<time>2009-10-17T08:27:37.000Z</time>
</trkpt>
<trkpt lat="31.7117000" lon="35.0340300">
<ele>499.000031</ele>
<time>2009-10-17T08:27:57.000Z</time>
</trkpt>
<trkpt lat="31.7117700" lon="35.0343000">
<ele>498.299988</ele>
<time>2009-10-17T08:28:20.000Z</time>
</trkpt>
<trkpt lat="31.7118500" lon="35.0345500">
<ele>497.100006</ele>
<time>2009-10-17T08:28:39.000Z</time>
</trkpt>
<trkpt lat="31.7119400" lon="35.0348400">
<ele>499.600006</ele>
<time>2009-10-17T08:29:01.000Z</time>
</trkpt>
<trkpt lat="31.7120400" lon="35.0351200">
<ele>502.200012</ele>
<time>2009-10-17T08:29:22.000Z</time>
</trkpt>
<trkpt lat="31.7121300" lon="35.0353900">
<ele>504.699982</ele>
<time>2009-10-17T08:29:42.000Z</time>
</trkpt>
<trkpt lat="31.7121700" lon="35.0356600">
<ele>507.699982</ele>
<time>2009-10-17T08:30:01.000Z</time>
</trkpt>
<trkpt lat="31.7121800" lon="35.0357700">
<ele>509.100006</ele>
<time>2009-10-17T08:30:11.000Z</time>
</trkpt>
<trkpt lat="31.7121800" lon="35.0358900">
<ele>511.100006</ele>
<time>2009-10-17T08:30:19.000Z</time>
</trkpt>
<trkpt lat="31.7121800" lon="35.0361100">
<ele>514.700012</ele>
<time>2009-10-17T08:30:38.000Z</time>
</trkpt>
<trkpt lat="31.7121800" lon="35.0363700">
<ele>518.399963</ele>
<time>2009-10-17T08:30:58.000Z</time>
</trkpt>
<trkpt lat="31.7121600" lon="35.0366000">
<ele>521.900024</ele>
<time>2009-10-17T08:31:16.000Z</time>
</trkpt>
<trkpt lat="31.7121800" lon="35.0368600">
<ele>524.200012</ele>
<time>2009-10-17T08:38:18.000Z</time>
</trkpt>
<trkpt lat="31.7122000" lon="35.0371200">
<ele>526.200012</ele>
<time>2009-10-17T08:38:37.000Z</time>
</trkpt>
<trkpt lat="31.7122200" lon="35.0373400">
<ele>526.799988</ele>
<time>2009-10-17T08:38:56.000Z</time>
</trkpt>
<trkpt lat="31.7122500" lon="35.0375800">
<ele>527.299988</ele>
<time>2009-10-17T08:39:12.000Z</time>
</trkpt>
<trkpt lat="31.7123700" lon="35.0378900">
<ele>525.500000</ele>
<time>2009-10-17T08:39:32.000Z</time>
</trkpt>
<trkpt lat="31.7125000" lon="35.0382000">
<ele>525.599976</ele>
<time>2009-10-17T08:39:53.000Z</time>
</trkpt>
<trkpt lat="31.7126400" lon="35.0384800">
<ele>525.799988</ele>
<time>2009-10-17T08:40:13.000Z</time>
</trkpt>
<trkpt lat="31.7128000" lon="35.0387900">
<ele>526.799988</ele>
<time>2009-10-17T08:40:33.000Z</time>
</trkpt>
<trkpt lat="31.7129400" lon="35.0391000">
<ele>529.900024</ele>
<time>2009-10-17T08:40:55.000Z</time>
</trkpt>
<trkpt lat="31.7130500" lon="35.0393100">
<ele>531.500000</ele>
<time>2009-10-17T08:41:10.000Z</time>
</trkpt>
<trkpt lat="31.7132100" lon="35.0395900">
<ele>533.400024</ele>
<time>2009-10-17T08:41:30.000Z</time>
</trkpt>
<trkpt lat="31.7133700" lon="35.0398500">
<ele>535.700012</ele>
<time>2009-10-17T08:41:47.000Z</time>
</trkpt>
<trkpt lat="31.7135400" lon="35.0400800">
<ele>536.799988</ele>
<time>2009-10-17T08:42:05.000Z</time>
</trkpt>
<trkpt lat="31.7137600" lon="35.0403700">
<ele>537.700012</ele>
<time>2009-10-17T08:42:28.000Z</time>
</trkpt>
<trkpt lat="31.7139600" lon="35.0406000">
<ele>539.599976</ele>
<time>2009-10-17T08:42:48.000Z</time>
</trkpt>
<trkpt lat="31.7141900" lon="35.0408500">
<ele>541.700012</ele>
<time>2009-10-17T08:45:45.000Z</time>
</trkpt>
<trkpt lat="31.7143400" lon="35.0410000">
<ele>542.900024</ele>
<time>2009-10-17T08:46:03.000Z</time>
</trkpt>
<trkpt lat="31.7145100" lon="35.0412000">
<ele>545.100037</ele>
<time>2009-10-17T08:46:20.000Z</time>
</trkpt>
<trkpt lat="31.7146900" lon="35.0414100">
<ele>547.099976</ele>
<time>2009-10-17T08:46:39.000Z</time>
</trkpt>
<trkpt lat="31.7148300" lon="35.0416100">
<ele>549.399963</ele>
<time>2009-10-17T08:46:55.000Z</time>
</trkpt>
<trkpt lat="31.7149800" lon="35.0419200">
<ele>553.900024</ele>
<time>2009-10-17T08:47:14.000Z</time>
</trkpt>
<trkpt lat="31.7150500" lon="35.0421800">
<ele>557.799988</ele>
<time>2009-10-17T08:47:32.000Z</time>
</trkpt>
<trkpt lat="31.7150500" lon="35.0424900">
<ele>562.400024</ele>
<time>2009-10-17T08:47:51.000Z</time>
</trkpt>
<trkpt lat="31.7149900" lon="35.0428400">
<ele>569.099976</ele>
<time>2009-10-17T08:48:12.000Z</time>
</trkpt>
<trkpt lat="31.7148900" lon="35.0431600">
<ele>573.100037</ele>
<time>2009-10-17T08:48:32.000Z</time>
</trkpt>
<trkpt lat="31.7147600" lon="35.0434000">
<ele>577.000000</ele>
<time>2009-10-17T08:48:50.000Z</time>
</trkpt>
<trkpt lat="31.7145800" lon="35.0435500">
<ele>582.600037</ele>
<time>2009-10-17T08:49:10.000Z</time>
</trkpt>
<trkpt lat="31.7144000" lon="35.0436900">
<ele>587.900024</ele>
<time>2009-10-17T08:49:29.000Z</time>
</trkpt>
<trkpt lat="31.7142400" lon="35.0438600">
<ele>590.600037</ele>
<time>2009-10-17T08:49:49.000Z</time>
</trkpt>
<trkpt lat="31.7140700" lon="35.0439900">
<ele>593.399963</ele>
<time>2009-10-17T08:50:07.000Z</time>
</trkpt>
<trkpt lat="31.7139800" lon="35.0440500">
<ele>595.200012</ele>
<time>2009-10-17T08:54:07.000Z</time>
</trkpt>
<trkpt lat="31.7137800" lon="35.0442200">
<ele>598.900024</ele>
<time>2009-10-17T08:54:26.000Z</time>
</trkpt>
<trkpt lat="31.7136200" lon="35.0443700">
<ele>600.700012</ele>
<time>2009-10-17T08:54:44.000Z</time>
</trkpt>
<trkpt lat="31.7134600" lon="35.0445400">
<ele>602.399963</ele>
<time>2009-10-17T08:55:01.000Z</time>
</trkpt>
<trkpt lat="31.7133200" lon="35.0446900">
<ele>603.900024</ele>
<time>2009-10-17T08:55:16.000Z</time>
</trkpt>
<trkpt lat="31.7131900" lon="35.0448400">
<ele>605.200012</ele>
<time>2009-10-17T08:55:31.000Z</time>
</trkpt>
<trkpt lat="31.7130700" lon="35.0450200">
<ele>606.100037</ele>
<time>2009-10-17T08:55:47.000Z</time>
</trkpt>
<trkpt lat="31.7129100" lon="35.0452200">
<ele>608.200012</ele>
<time>2009-10-17T08:56:06.000Z</time>
</trkpt>
<trkpt lat="31.7127700" lon="35.0454900">
<ele>606.500000</ele>
<time>2009-10-17T08:56:25.000Z</time>
</trkpt>
<trkpt lat="31.7126300" lon="35.0457500">
<ele>606.000000</ele>
<time>2009-10-17T08:56:47.000Z</time>
</trkpt>
<trkpt lat="31.7125400" lon="35.0458900">
<ele>606.000000</ele>
<time>2009-10-17T08:57:00.000Z</time>
</trkpt>
<trkpt lat="31.7124700" lon="35.0460400">
<ele>606.000000</ele>
<time>2009-10-17T08:57:11.000Z</time>
</trkpt>
<trkpt lat="31.7123600" lon="35.0463100">
<ele>606.100037</ele>
<time>2009-10-17T08:57:30.000Z</time>
</trkpt>
<trkpt lat="31.7122700" lon="35.0466100">
<ele>606.299988</ele>
<time>2009-10-17T08:57:50.000Z</time>
</trkpt>
<trkpt lat="31.7122700" lon="35.0468900">
<ele>605.299988</ele>
<time>2009-10-17T08:58:09.000Z</time>
</trkpt>
<trkpt lat="31.7122700" lon="35.0469700">
<ele>605.000000</ele>
<time>2009-10-17T08:59:11.000Z</time>
</trkpt>
<trkpt lat="31.7122300" lon="35.0470700">
<ele>605.400024</ele>
<time>2009-10-17T08:59:34.000Z</time>
</trkpt>
<trkpt lat="31.7121200" lon="35.0471600">
<ele>607.200012</ele>
<time>2009-10-17T08:59:58.000Z</time>
</trkpt>
<trkpt lat="31.7119100" lon="35.0470700">
<ele>609.500000</ele>
<time>2009-10-17T09:00:29.000Z</time>
</trkpt>
<trkpt lat="31.7117400" lon="35.0470400">
<ele>610.900024</ele>
<time>2009-10-17T09:01:45.000Z</time>
</trkpt>
<trkpt lat="31.7117100" lon="35.0469400">
<ele>611.000000</ele>
<time>2009-10-17T09:02:01.000Z</time>
</trkpt>
<trkpt lat="31.7118100" lon="35.0469500">
<ele>610.299988</ele>
<time>2009-10-17T09:08:38.000Z</time>
</trkpt>
<trkpt lat="31.7119000" lon="35.0469800">
<ele>609.599976</ele>
<time>2009-10-17T09:08:57.000Z</time>
</trkpt>
<trkpt lat="31.7120100" lon="35.0470600">
<ele>608.700012</ele>
<time>2009-10-17T09:09:10.000Z</time>
</trkpt>
<trkpt lat="31.7121500" lon="35.0471600">
<ele>606.599976</ele>
<time>2009-10-17T09:09:18.000Z</time>
</trkpt>
<trkpt lat="31.7122500" lon="35.0472400">
<ele>604.700012</ele>
<time>2009-10-17T09:12:42.000Z</time>
</trkpt>
<trkpt lat="31.7122800" lon="35.0473400">
<ele>603.900024</ele>
<time>2009-10-17T09:12:46.000Z</time>
</trkpt>
<trkpt lat="31.7121400" lon="35.0476300">
<ele>605.700012</ele>
<time>2009-10-17T09:12:59.000Z</time>
</trkpt>
<trkpt lat="31.7121400" lon="35.0476900">
<ele>605.599976</ele>
<time>2009-10-17T09:13:03.000Z</time>
</trkpt>
<trkpt lat="31.7122900" lon="35.0476800">
<ele>603.000000</ele>
<time>2009-10-17T09:13:12.000Z</time>
</trkpt>
<trkpt lat="31.7124200" lon="35.0476800">
<ele>600.799988</ele>
<time>2009-10-17T09:13:17.000Z</time>
</trkpt>
<trkpt lat="31.7124900" lon="35.0479200">
<ele>599.099976</ele>
<time>2009-10-17T09:13:28.000Z</time>
</trkpt>
<trkpt lat="31.7125000" lon="35.0479800">
<ele>598.299988</ele>
<time>2009-10-17T09:13:44.000Z</time>
</trkpt>
<trkpt lat="31.7123900" lon="35.0482900">
<ele>597.099976</ele>
<time>2009-10-17T09:13:58.000Z</time>
</trkpt>
<trkpt lat="31.7123700" lon="35.0484600">
<ele>595.700012</ele>
<time>2009-10-17T09:14:03.000Z</time>
</trkpt>
<trkpt lat="31.7123600" lon="35.0485000">
<ele>595.500000</ele>
<time>2009-10-17T09:14:05.000Z</time>
</trkpt>
<trkpt lat="31.7123100" lon="35.0487400">
<ele>594.200012</ele>
<time>2009-10-17T09:14:13.000Z</time>
</trkpt>
<trkpt lat="31.7123300" lon="35.0490100">
<ele>590.600037</ele>
<time>2009-10-17T09:14:22.000Z</time>
</trkpt>
<trkpt lat="31.7123300" lon="35.0490800">
<ele>589.799988</ele>
<time>2009-10-17T09:14:25.000Z</time>
</trkpt>
<trkpt lat="31.7123300" lon="35.0492000">
<ele>588.299988</ele>
<time>2009-10-17T09:14:28.000Z</time>
</trkpt>
<trkpt lat="31.7123300" lon="35.0494000">
<ele>586.000000</ele>
<time>2009-10-17T09:14:33.000Z</time>
</trkpt>
<trkpt lat="31.7122800" lon="35.0497700">
<ele>583.500000</ele>
<time>2009-10-17T09:14:44.000Z</time>
</trkpt>
<trkpt lat="31.7122500" lon="35.0499100">
<ele>583.099976</ele>
<time>2009-10-17T09:14:51.000Z</time>
</trkpt>
<trkpt lat="31.7122900" lon="35.0499600">
<ele>581.700012</ele>
<time>2009-10-17T09:15:04.000Z</time>
</trkpt>
<trkpt lat="31.7122900" lon="35.0499600">
<ele>581.700012</ele>
<time>2009-10-17T09:15:19.000Z</time>
</trkpt>
<trkpt lat="31.7123200" lon="35.0499500">
<ele>581.100037</ele>
<time>2009-10-17T09:15:28.000Z</time>
</trkpt>
<trkpt lat="31.7124800" lon="35.0496900">
<ele>579.200012</ele>
<time>2009-10-17T09:15:41.000Z</time>
</trkpt>
<trkpt lat="31.7126100" lon="35.0494700">
<ele>578.200012</ele>
<time>2009-10-17T09:15:53.000Z</time>
</trkpt>
<trkpt lat="31.7128500" lon="35.0492500">
<ele>575.400024</ele>
<time>2009-10-17T09:16:05.000Z</time>
</trkpt>
<trkpt lat="31.7129300" lon="35.0493000">
<ele>572.700012</ele>
<time>2009-10-17T09:16:10.000Z</time>
</trkpt>
<trkpt lat="31.7129100" lon="35.0495700">
<ele>569.400024</ele>
<time>2009-10-17T09:16:17.000Z</time>
</trkpt>
<trkpt lat="31.7129000" lon="35.0497300">
<ele>568.399963</ele>
<time>2009-10-17T09:16:21.000Z</time>
</trkpt>
<trkpt lat="31.7129500" lon="35.0499000">
<ele>565.900024</ele>
<time>2009-10-17T09:16:25.000Z</time>
</trkpt>
<trkpt lat="31.7130700" lon="35.0504400">
<ele>559.799988</ele>
<time>2009-10-17T09:16:37.000Z</time>
</trkpt>
<trkpt lat="31.7133700" lon="35.0505400">
<ele>554.000000</ele>
<time>2009-10-17T09:16:45.000Z</time>
</trkpt>
<trkpt lat="31.7135500" lon="35.0505200">
<ele>550.000000</ele>
<time>2009-10-17T09:16:51.000Z</time>
</trkpt>
<trkpt lat="31.7136100" lon="35.0505100">
<ele>548.700012</ele>
<time>2009-10-17T09:16:52.000Z</time>
</trkpt>
<trkpt lat="31.7136600" lon="35.0505100">
<ele>547.599976</ele>
<time>2009-10-17T09:18:25.000Z</time>
</trkpt>
<trkpt lat="31.7137900" lon="35.0504900">
<ele>545.100037</ele>
<time>2009-10-17T09:18:33.000Z</time>
</trkpt>
<trkpt lat="31.7138500" lon="35.0505000">
<ele>544.500000</ele>
<time>2009-10-17T09:18:48.000Z</time>
</trkpt>
<trkpt lat="31.7142000" lon="35.0506600">
<ele>541.400024</ele>
<time>2009-10-17T09:21:07.000Z</time>
</trkpt>
<trkpt lat="31.7143500" lon="35.0509100">
<ele>540.799988</ele>
<time>2009-10-17T09:21:22.000Z</time>
</trkpt>
<trkpt lat="31.7144300" lon="35.0510900">
<ele>540.500000</ele>
<time>2009-10-17T09:21:30.000Z</time>
</trkpt>
<trkpt lat="31.7145000" lon="35.0511000">
<ele>539.599976</ele>
<time>2009-10-17T09:21:36.000Z</time>
</trkpt>
<trkpt lat="31.7147800" lon="35.0511300">
<ele>540.200012</ele>
<time>2009-10-17T09:21:52.000Z</time>
</trkpt>
<trkpt lat="31.7148200" lon="35.0511600">
<ele>540.600037</ele>
<time>2009-10-17T09:21:54.000Z</time>
</trkpt>
<trkpt lat="31.7148400" lon="35.0513600">
<ele>541.899963</ele>
<time>2009-10-17T09:22:08.000Z</time>
</trkpt>
<trkpt lat="31.7148400" lon="35.0516000">
<ele>543.600037</ele>
<time>2009-10-17T09:22:28.000Z</time>
</trkpt>
<trkpt lat="31.7148200" lon="35.0516300">
<ele>543.700012</ele>
<time>2009-10-17T09:22:51.000Z</time>
</trkpt>
<trkpt lat="31.7148200" lon="35.0515300">
<ele>543.000000</ele>
<time>2009-10-17T09:25:24.000Z</time>
</trkpt>
<trkpt lat="31.7148000" lon="35.0513700">
<ele>541.700012</ele>
<time>2009-10-17T09:26:54.000Z</time>
</trkpt>
<trkpt lat="31.7147900" lon="35.0511300">
<ele>540.299988</ele>
<time>2009-10-17T09:30:56.000Z</time>
</trkpt>
<trkpt lat="31.7145600" lon="35.0509500">
<ele>538.200012</ele>
<time>2009-10-17T09:31:05.000Z</time>
</trkpt>
<trkpt lat="31.7145700" lon="35.0503500">
<ele>536.099976</ele>
<time>2009-10-17T09:31:20.000Z</time>
</trkpt>
<trkpt lat="31.7145900" lon="35.0496300">
<ele>535.099976</ele>
<time>2009-10-17T09:31:32.000Z</time>
</trkpt>
<trkpt lat="31.7146500" lon="35.0494400">
<ele>535.200012</ele>
<time>2009-10-17T09:31:36.000Z</time>
</trkpt>
<trkpt lat="31.7147500" lon="35.0492600">
<ele>535.299988</ele>
<time>2009-10-17T09:31:40.000Z</time>
</trkpt>
<trkpt lat="31.7147800" lon="35.0491700">
<ele>535.099976</ele>
<time>2009-10-17T09:31:43.000Z</time>
</trkpt>
<trkpt lat="31.7150300" lon="35.0485700">
<ele>532.900024</ele>
<time>2009-10-17T09:31:58.000Z</time>
</trkpt>
<trkpt lat="31.7151500" lon="35.0482700">
<ele>531.200012</ele>
<time>2009-10-17T09:32:06.000Z</time>
</trkpt>
<trkpt lat="31.7151600" lon="35.0482000">
<ele>530.799988</ele>
<time>2009-10-17T09:32:18.000Z</time>
</trkpt>
<trkpt lat="31.7151200" lon="35.0482100">
<ele>531.200012</ele>
<time>2009-10-17T09:32:28.000Z</time>
</trkpt>
<trkpt lat="31.7150500" lon="35.0482800">
<ele>532.000000</ele>
<time>2009-10-17T09:32:32.000Z</time>
</trkpt>
<trkpt lat="31.7148300" lon="35.0484900">
<ele>533.899963</ele>
<time>2009-10-17T09:32:53.000Z</time>
</trkpt>
<trkpt lat="31.7148400" lon="35.0485000">
<ele>533.799988</ele>
<time>2009-10-17T09:41:55.000Z</time>
</trkpt>
<trkpt lat="31.7151000" lon="35.0482600">
<ele>531.500000</ele>
<time>2009-10-17T09:53:53.000Z</time>
</trkpt>
<trkpt lat="31.7151900" lon="35.0482100">
<ele>530.599976</ele>
<time>2009-10-17T09:53:58.000Z</time>
</trkpt>
<trkpt lat="31.7152200" lon="35.0480400">
<ele>529.700012</ele>
<time>2009-10-17T09:54:04.000Z</time>
</trkpt>
<trkpt lat="31.7152700" lon="35.0475500">
<ele>527.899963</ele>
<time>2009-10-17T09:54:17.000Z</time>
</trkpt>
<trkpt lat="31.7152100" lon="35.0470100">
<ele>527.599976</ele>
<time>2009-10-17T09:54:31.000Z</time>
</trkpt>
<trkpt lat="31.7151600" lon="35.0467600">
<ele>527.700012</ele>
<time>2009-10-17T09:54:40.000Z</time>
</trkpt>
<trkpt lat="31.7150900" lon="35.0466200">
<ele>528.500000</ele>
<time>2009-10-17T09:55:02.000Z</time>
</trkpt>
<trkpt lat="31.7149900" lon="35.0462000">
<ele>530.000000</ele>
<time>2009-10-17T09:55:10.000Z</time>
</trkpt>
<trkpt lat="31.7149900" lon="35.0460100">
<ele>531.000000</ele>
<time>2009-10-17T09:55:14.000Z</time>
</trkpt>
<trkpt lat="31.7150600" lon="35.0458100">
<ele>530.299988</ele>
<time>2009-10-17T09:55:19.000Z</time>
</trkpt>
<trkpt lat="31.7151100" lon="35.0457400">
<ele>529.200012</ele>
<time>2009-10-17T09:55:21.000Z</time>
</trkpt>
<trkpt lat="31.7154900" lon="35.0453900">
<ele>520.500000</ele>
<time>2009-10-17T09:55:29.000Z</time>
</trkpt>
<trkpt lat="31.7156100" lon="35.0452700">
<ele>522.299988</ele>
<time>2009-10-17T09:55:30.000Z</time>
</trkpt>
<trkpt lat="31.7157100" lon="35.0451500">
<ele>523.500000</ele>
<time>2009-10-17T09:55:33.000Z</time>
</trkpt>
<trkpt lat="31.7160500" lon="35.0447300">
<ele>521.299988</ele>
<time>2009-10-17T09:55:42.000Z</time>
</trkpt>
<trkpt lat="31.7162500" lon="35.0444300">
<ele>517.700012</ele>
<time>2009-10-17T09:55:48.000Z</time>
</trkpt>
<trkpt lat="31.7165500" lon="35.0437000">
<ele>520.700012</ele>
<time>2009-10-17T09:55:58.000Z</time>
</trkpt>
<trkpt lat="31.7166800" lon="35.0431000">
<ele>517.500000</ele>
<time>2009-10-17T09:56:09.000Z</time>
</trkpt>
<trkpt lat="31.7167200" lon="35.0428900">
<ele>515.799988</ele>
<time>2009-10-17T09:56:13.000Z</time>
</trkpt>
<trkpt lat="31.7168100" lon="35.0425500">
<ele>512.299988</ele>
<time>2009-10-17T09:56:23.000Z</time>
</trkpt>
<trkpt lat="31.7170200" lon="35.0422200">
<ele>505.200012</ele>
<time>2009-10-17T09:56:36.000Z</time>
</trkpt>
<trkpt lat="31.7171600" lon="35.0418600">
<ele>503.299988</ele>
<time>2009-10-17T09:56:51.000Z</time>
</trkpt>
<trkpt lat="31.7171600" lon="35.0417600">
<ele>502.899994</ele>
<time>2009-10-17T09:56:52.000Z</time>
</trkpt>
<trkpt lat="31.7171200" lon="35.0415400">
<ele>501.199982</ele>
<time>2009-10-17T09:56:56.000Z</time>
</trkpt>
<trkpt lat="31.7170700" lon="35.0412800">
<ele>499.399994</ele>
<time>2009-10-17T09:57:02.000Z</time>
</trkpt>
<trkpt lat="31.7170900" lon="35.0411900">
<ele>499.600006</ele>
<time>2009-10-17T09:57:06.000Z</time>
</trkpt>
<trkpt lat="31.7171500" lon="35.0412300">
<ele>500.800018</ele>
<time>2009-10-17T09:57:11.000Z</time>
</trkpt>
<trkpt lat="31.7172300" lon="35.0415700">
<ele>503.600006</ele>
<time>2009-10-17T09:57:30.000Z</time>
</trkpt>
<trkpt lat="31.7172500" lon="35.0417800">
<ele>504.600006</ele>
<time>2009-10-17T09:57:44.000Z</time>
</trkpt>
<trkpt lat="31.7172300" lon="35.0421000">
<ele>505.200012</ele>
<time>2009-10-17T09:58:05.000Z</time>
</trkpt>
<trkpt lat="31.7169500" lon="35.0427800">
<ele>508.700012</ele>
<time>2009-10-17T10:01:05.000Z</time>
</trkpt>
<trkpt lat="31.7170400" lon="35.0429000">
<ele>506.299988</ele>
<time>2009-10-17T10:01:14.000Z</time>
</trkpt>
<trkpt lat="31.7172200" lon="35.0427700">
<ele>507.200012</ele>
<time>2009-10-17T10:01:30.000Z</time>
</trkpt>
<trkpt lat="31.7173600" lon="35.0425000">
<ele>508.599976</ele>
<time>2009-10-17T10:01:47.000Z</time>
</trkpt>
<trkpt lat="31.7174000" lon="35.0423500">
<ele>508.700012</ele>
<time>2009-10-17T10:02:00.000Z</time>
</trkpt>
<trkpt lat="31.7174400" lon="35.0421300">
<ele>508.299988</ele>
<time>2009-10-17T10:02:14.000Z</time>
</trkpt>
<trkpt lat="31.7175000" lon="35.0418900">
<ele>509.100006</ele>
<time>2009-10-17T10:02:23.000Z</time>
</trkpt>
<trkpt lat="31.7175400" lon="35.0418300">
<ele>509.899994</ele>
<time>2009-10-17T10:02:27.000Z</time>
</trkpt>
<trkpt lat="31.7176100" lon="35.0419200">
<ele>510.900024</ele>
<time>2009-10-17T10:02:38.000Z</time>
</trkpt>
<trkpt lat="31.7176200" lon="35.0419600">
<ele>511.000000</ele>
<time>2009-10-17T10:05:20.000Z</time>
</trkpt>
<trkpt lat="31.7176300" lon="35.0420200">
<ele>511.000000</ele>
<time>2009-10-17T10:05:48.000Z</time>
</trkpt>
<trkpt lat="31.7176500" lon="35.0421200">
<ele>511.399994</ele>
<time>2009-10-17T10:06:03.000Z</time>
</trkpt>
<trkpt lat="31.7176700" lon="35.0423400">
<ele>512.900024</ele>
<time>2009-10-17T10:06:19.000Z</time>
</trkpt>
<trkpt lat="31.7176600" lon="35.0426000">
<ele>514.299988</ele>
<time>2009-10-17T10:06:37.000Z</time>
</trkpt>
<trkpt lat="31.7176700" lon="35.0427700">
<ele>515.399963</ele>
<time>2009-10-17T10:06:50.000Z</time>
</trkpt>
<trkpt lat="31.7176900" lon="35.0429100">
<ele>516.599976</ele>
<time>2009-10-17T10:07:01.000Z</time>
</trkpt>
<trkpt lat="31.7177200" lon="35.0429900">
<ele>518.099976</ele>
<time>2009-10-17T10:07:08.000Z</time>
</trkpt>
<trkpt lat="31.7177900" lon="35.0430600">
<ele>520.400024</ele>
<time>2009-10-17T10:07:16.000Z</time>
</trkpt>
<trkpt lat="31.7179600" lon="35.0430600">
<ele>523.900024</ele>
<time>2009-10-17T10:07:32.000Z</time>
</trkpt>
<trkpt lat="31.7182100" lon="35.0429700">
<ele>528.599976</ele>
<time>2009-10-17T10:07:55.000Z</time>
</trkpt>
<trkpt lat="31.7184600" lon="35.0428300">
<ele>533.700012</ele>
<time>2009-10-17T10:08:17.000Z</time>
</trkpt>
<trkpt lat="31.7186600" lon="35.0427600">
<ele>538.399963</ele>
<time>2009-10-17T10:08:36.000Z</time>
</trkpt>
<trkpt lat="31.7188800" lon="35.0426700">
<ele>542.000000</ele>
<time>2009-10-17T10:08:56.000Z</time>
</trkpt>
<trkpt lat="31.7191100" lon="35.0425800">
<ele>544.599976</ele>
<time>2009-10-17T10:09:15.000Z</time>
</trkpt>
<trkpt lat="31.7192300" lon="35.0425500">
<ele>546.099976</ele>
<time>2009-10-17T10:09:30.000Z</time>
</trkpt>
<trkpt lat="31.7192300" lon="35.0425500">
<ele>546.099976</ele>
<time>2009-10-17T10:10:13.000Z</time>
</trkpt>
<trkpt lat="31.7193000" lon="35.0425700">
<ele>546.900024</ele>
<time>2009-10-17T10:11:20.000Z</time>
</trkpt>
<trkpt lat="31.7196300" lon="35.0427100">
<ele>550.000000</ele>
<time>2009-10-17T10:11:38.000Z</time>
</trkpt>
<trkpt lat="31.7197000" lon="35.0427100">
<ele>549.700012</ele>
<time>2009-10-17T10:11:41.000Z</time>
</trkpt>
<trkpt lat="31.7198800" lon="35.0426000">
<ele>549.000000</ele>
<time>2009-10-17T10:11:53.000Z</time>
</trkpt>
<trkpt lat="31.7199100" lon="35.0426800">
<ele>548.700012</ele>
<time>2009-10-17T10:12:06.000Z</time>
</trkpt>
<trkpt lat="31.7199600" lon="35.0428400">
<ele>548.299988</ele>
<time>2009-10-17T10:12:13.000Z</time>
</trkpt>
<trkpt lat="31.7199600" lon="35.0435700">
<ele>551.299988</ele>
<time>2009-10-17T10:12:23.000Z</time>
</trkpt>
<trkpt lat="31.7199400" lon="35.0439600">
<ele>553.100037</ele>
<time>2009-10-17T10:12:33.000Z</time>
</trkpt>
<trkpt lat="31.7199100" lon="35.0442400">
<ele>554.500000</ele>
<time>2009-10-17T10:12:48.000Z</time>
</trkpt>
<trkpt lat="31.7199300" lon="35.0445100">
<ele>555.400024</ele>
<time>2009-10-17T10:13:02.000Z</time>
</trkpt>
<trkpt lat="31.7198900" lon="35.0448400">
<ele>557.900024</ele>
<time>2009-10-17T10:13:15.000Z</time>
</trkpt>
<trkpt lat="31.7199000" lon="35.0450200">
<ele>559.100037</ele>
<time>2009-10-17T10:14:01.000Z</time>
</trkpt>
<trkpt lat="31.7199300" lon="35.0453700">
<ele>561.299988</ele>
<time>2009-10-17T10:14:17.000Z</time>
</trkpt>
<trkpt lat="31.7199700" lon="35.0457500">
<ele>564.200012</ele>
<time>2009-10-17T10:14:36.000Z</time>
</trkpt>
<trkpt lat="31.7200700" lon="35.0461100">
<ele>565.700012</ele>
<time>2009-10-17T10:14:54.000Z</time>
</trkpt>
<trkpt lat="31.7202500" lon="35.0465200">
<ele>566.099976</ele>
<time>2009-10-17T10:15:11.000Z</time>
</trkpt>
<trkpt lat="31.7205000" lon="35.0470300">
<ele>566.700012</ele>
<time>2009-10-17T10:15:30.000Z</time>
</trkpt>
<trkpt lat="31.7205600" lon="35.0474100">
<ele>569.099976</ele>
<time>2009-10-17T10:15:45.000Z</time>
</trkpt>
<trkpt lat="31.7206300" lon="35.0477700">
<ele>570.900024</ele>
<time>2009-10-17T10:16:01.000Z</time>
</trkpt>
<trkpt lat="31.7208600" lon="35.0482100">
<ele>571.299988</ele>
<time>2009-10-17T10:16:21.000Z</time>
</trkpt>
<trkpt lat="31.7212200" lon="35.0485000">
<ele>568.200012</ele>
<time>2009-10-17T10:16:43.000Z</time>
</trkpt>
<trkpt lat="31.7215100" lon="35.0487500">
<ele>569.899963</ele>
<time>2009-10-17T10:17:01.000Z</time>
</trkpt>
<trkpt lat="31.7218700" lon="35.0490300">
<ele>573.100037</ele>
<time>2009-10-17T10:17:22.000Z</time>
</trkpt>
<trkpt lat="31.7221700" lon="35.0492500">
<ele>574.799988</ele>
<time>2009-10-17T10:17:41.000Z</time>
</trkpt>
<trkpt lat="31.7224400" lon="35.0494800">
<ele>577.099976</ele>
<time>2009-10-17T10:18:00.000Z</time>
</trkpt>
<trkpt lat="31.7225200" lon="35.0495700">
<ele>577.200012</ele>
<time>2009-10-17T10:18:12.000Z</time>
</trkpt>
<trkpt lat="31.7226100" lon="35.0496800">
<ele>579.099976</ele>
<time>2009-10-17T10:23:59.000Z</time>
</trkpt>
<trkpt lat="31.7229400" lon="35.0500700">
<ele>584.299988</ele>
<time>2009-10-17T10:24:17.000Z</time>
</trkpt>
<trkpt lat="31.7232400" lon="35.0504500">
<ele>585.799988</ele>
<time>2009-10-17T10:24:34.000Z</time>
</trkpt>
<trkpt lat="31.7234300" lon="35.0507600">
<ele>588.099976</ele>
<time>2009-10-17T10:24:48.000Z</time>
</trkpt>
<trkpt lat="31.7236100" lon="35.0511200">
<ele>588.900024</ele>
<time>2009-10-17T10:25:04.000Z</time>
</trkpt>
<trkpt lat="31.7237600" lon="35.0514500">
<ele>589.400024</ele>
<time>2009-10-17T10:25:21.000Z</time>
</trkpt>
<trkpt lat="31.7238900" lon="35.0517000">
<ele>592.100037</ele>
<time>2009-10-17T10:25:36.000Z</time>
</trkpt>
<trkpt lat="31.7240200" lon="35.0519900">
<ele>593.799988</ele>
<time>2009-10-17T10:25:55.000Z</time>
</trkpt>
<trkpt lat="31.7240600" lon="35.0520600">
<ele>593.900024</ele>
<time>2009-10-17T10:26:09.000Z</time>
</trkpt>
<trkpt lat="31.7243200" lon="35.0521400">
<ele>592.100037</ele>
<time>2009-10-17T10:26:22.000Z</time>
</trkpt>
<trkpt lat="31.7245500" lon="35.0521300">
<ele>589.700012</ele>
<time>2009-10-17T10:26:34.000Z</time>
</trkpt>
<trkpt lat="31.7246300" lon="35.0520500">
<ele>589.899963</ele>
<time>2009-10-17T10:26:41.000Z</time>
</trkpt>
<trkpt lat="31.7246500" lon="35.0520100">
<ele>590.400024</ele>
<time>2009-10-17T10:26:55.000Z</time>
</trkpt>
<trkpt lat="31.7246100" lon="35.0520400">
<ele>589.599976</ele>
<time>2009-10-17T10:28:08.000Z</time>
</trkpt>
<trkpt lat="31.7245600" lon="35.0521900">
<ele>590.000000</ele>
<time>2009-10-17T10:28:13.000Z</time>
</trkpt>
<trkpt lat="31.7244800" lon="35.0526500">
<ele>594.700012</ele>
<time>2009-10-17T10:28:30.000Z</time>
</trkpt>
<trkpt lat="31.7245400" lon="35.0528900">
<ele>595.599976</ele>
<time>2009-10-17T10:28:43.000Z</time>
</trkpt>
<trkpt lat="31.7247100" lon="35.0531600">
<ele>598.599976</ele>
<time>2009-10-17T10:28:57.000Z</time>
</trkpt>
<trkpt lat="31.7248200" lon="35.0532800">
<ele>599.700012</ele>
<time>2009-10-17T10:31:15.000Z</time>
</trkpt>
<trkpt lat="31.7250300" lon="35.0536100">
<ele>601.700012</ele>
<time>2009-10-17T10:31:33.000Z</time>
</trkpt>
<trkpt lat="31.7252700" lon="35.0539100">
<ele>601.900024</ele>
<time>2009-10-17T10:31:49.000Z</time>
</trkpt>
<trkpt lat="31.7255000" lon="35.0543300">
<ele>603.700012</ele>
<time>2009-10-17T10:32:08.000Z</time>
</trkpt>
<trkpt lat="31.7255200" lon="35.0544400">
<ele>604.600037</ele>
<time>2009-10-17T10:32:13.000Z</time>
</trkpt>
<trkpt lat="31.7256800" lon="35.0544500">
<ele>603.299988</ele>
<time>2009-10-17T10:32:25.000Z</time>
</trkpt>
<trkpt lat="31.7259000" lon="35.0544000">
<ele>601.200012</ele>
<time>2009-10-17T10:32:40.000Z</time>
</trkpt>
<trkpt lat="31.7259600" lon="35.0543800">
<ele>600.700012</ele>
<time>2009-10-17T10:33:19.000Z</time>
</trkpt>
<trkpt lat="31.7260900" lon="35.0543300">
<ele>599.700012</ele>
<time>2009-10-17T10:33:29.000Z</time>
</trkpt>
<trkpt lat="31.7262700" lon="35.0541400">
<ele>599.299988</ele>
<time>2009-10-17T10:33:48.000Z</time>
</trkpt>
<trkpt lat="31.7263900" lon="35.0538700">
<ele>601.400024</ele>
<time>2009-10-17T10:34:04.000Z</time>
</trkpt>
<trkpt lat="31.7263700" lon="35.0535700">
<ele>602.799988</ele>
<time>2009-10-17T10:34:20.000Z</time>
</trkpt>
<trkpt lat="31.7263400" lon="35.0532700">
<ele>604.900024</ele>
<time>2009-10-17T10:34:35.000Z</time>
</trkpt>
<trkpt lat="31.7265300" lon="35.0531100">
<ele>607.700012</ele>
<time>2009-10-17T10:34:51.000Z</time>
</trkpt>
<trkpt lat="31.7266800" lon="35.0529600">
<ele>609.799988</ele>
<time>2009-10-17T10:35:06.000Z</time>
</trkpt>
<trkpt lat="31.7267600" lon="35.0529500">
<ele>610.500000</ele>
<time>2009-10-17T10:35:21.000Z</time>
</trkpt>
<trkpt lat="31.7268600" lon="35.0528800">
<ele>611.700012</ele>
<time>2009-10-17T10:36:03.000Z</time>
</trkpt>
<trkpt lat="31.7270000" lon="35.0527100">
<ele>613.799988</ele>
<time>2009-10-17T10:36:19.000Z</time>
</trkpt>
<trkpt lat="31.7270700" lon="35.0525900">
<ele>614.899963</ele>
<time>2009-10-17T10:39:12.000Z</time>
</trkpt>
<trkpt lat="31.7271100" lon="35.0522700">
<ele>616.500000</ele>
<time>2009-10-17T10:39:23.000Z</time>
</trkpt>
<trkpt lat="31.7272100" lon="35.0517600">
<ele>617.000000</ele>
<time>2009-10-17T10:39:39.000Z</time>
</trkpt>
<trkpt lat="31.7272700" lon="35.0517300">
<ele>616.000000</ele>
<time>2009-10-17T10:39:43.000Z</time>
</trkpt>
<trkpt lat="31.7273900" lon="35.0519800">
<ele>612.799988</ele>
<time>2009-10-17T10:39:55.000Z</time>
</trkpt>
<trkpt lat="31.7274200" lon="35.0523400">
<ele>611.599976</ele>
<time>2009-10-17T10:40:10.000Z</time>
</trkpt>
<trkpt lat="31.7275800" lon="35.0524800">
<ele>609.500000</ele>
<time>2009-10-17T10:40:19.000Z</time>
</trkpt>
<trkpt lat="31.7277300" lon="35.0525000">
<ele>607.700012</ele>
<time>2009-10-17T10:40:27.000Z</time>
</trkpt>
<trkpt lat="31.7277500" lon="35.0523700">
<ele>607.000000</ele>
<time>2009-10-17T10:40:33.000Z</time>
</trkpt>
<trkpt lat="31.7277100" lon="35.0521000">
<ele>606.799988</ele>
<time>2009-10-17T10:40:42.000Z</time>
</trkpt>
<trkpt lat="31.7276700" lon="35.0519700">
<ele>607.600037</ele>
<time>2009-10-17T10:40:53.000Z</time>
</trkpt>
<trkpt lat="31.7277400" lon="35.0518300">
<ele>606.400024</ele>
<time>2009-10-17T10:41:27.000Z</time>
</trkpt>
<trkpt lat="31.7278500" lon="35.0517900">
<ele>604.299988</ele>
<time>2009-10-17T10:41:31.000Z</time>
</trkpt>
<trkpt lat="31.7279400" lon="35.0517900">
<ele>602.700012</ele>
<time>2009-10-17T10:41:32.000Z</time>
</trkpt>
<trkpt lat="31.7283700" lon="35.0517800">
<ele>596.799988</ele>
<time>2009-10-17T10:41:40.000Z</time>
</trkpt>
<trkpt lat="31.7285400" lon="35.0516800">
<ele>594.400024</ele>
<time>2009-10-17T10:41:47.000Z</time>
</trkpt>
<trkpt lat="31.7285200" lon="35.0516800">
<ele>594.700012</ele>
<time>2009-10-17T10:42:18.000Z</time>
</trkpt>
<trkpt lat="31.7285200" lon="35.0516800">
<ele>594.700012</ele>
<time>2009-10-17T10:42:30.000Z</time>
</trkpt>
<trkpt lat="31.7284000" lon="35.0512800">
<ele>596.099976</ele>
<time>2009-10-17T10:42:44.000Z</time>
</trkpt>
<trkpt lat="31.7283700" lon="35.0506700">
<ele>597.000000</ele>
<time>2009-10-17T10:42:56.000Z</time>
</trkpt>
<trkpt lat="31.7283100" lon="35.0503200">
<ele>598.599976</ele>
<time>2009-10-17T10:43:01.000Z</time>
</trkpt>
<trkpt lat="31.7283000" lon="35.0501800">
<ele>599.000000</ele>
<time>2009-10-17T10:43:04.000Z</time>
</trkpt>
<trkpt lat="31.7283200" lon="35.0500400">
<ele>598.799988</ele>
<time>2009-10-17T10:43:05.000Z</time>
</trkpt>
<trkpt lat="31.7284700" lon="35.0493000">
<ele>596.099976</ele>
<time>2009-10-17T10:43:16.000Z</time>
</trkpt>
<trkpt lat="31.7285500" lon="35.0488800">
<ele>594.799988</ele>
<time>2009-10-17T10:43:23.000Z</time>
</trkpt>
<trkpt lat="31.7285900" lon="35.0487400">
<ele>593.900024</ele>
<time>2009-10-17T10:43:24.000Z</time>
</trkpt>
<trkpt lat="31.7287400" lon="35.0484800">
<ele>592.500000</ele>
<time>2009-10-17T10:43:28.000Z</time>
</trkpt>
<trkpt lat="31.7292200" lon="35.0478600">
<ele>592.000000</ele>
<time>2009-10-17T10:43:39.000Z</time>
</trkpt>
<trkpt lat="31.7293000" lon="35.0477700">
<ele>592.200012</ele>
<time>2009-10-17T10:43:42.000Z</time>
</trkpt>
<trkpt lat="31.7295200" lon="35.0475600">
<ele>592.299988</ele>
<time>2009-10-17T10:43:48.000Z</time>
</trkpt>
<trkpt lat="31.7299000" lon="35.0472400">
<ele>591.500000</ele>
<time>2009-10-17T10:43:57.000Z</time>
</trkpt>
<trkpt lat="31.7300100" lon="35.0470700">
<ele>591.400024</ele>
<time>2009-10-17T10:43:59.000Z</time>
</trkpt>
<trkpt lat="31.7304800" lon="35.0466500">
<ele>586.899963</ele>
<time>2009-10-17T10:44:10.000Z</time>
</trkpt>
<trkpt lat="31.7305300" lon="35.0466100">
<ele>586.400024</ele>
<time>2009-10-17T10:44:10.000Z</time>
</trkpt>
<trkpt lat="31.7306800" lon="35.0464900">
<ele>584.500000</ele>
<time>2009-10-17T10:44:14.000Z</time>
</trkpt>
<trkpt lat="31.7312900" lon="35.0459400">
<ele>577.099976</ele>
<time>2009-10-17T10:44:29.000Z</time>
</trkpt>
<trkpt lat="31.7314200" lon="35.0459000">
<ele>576.100037</ele>
<time>2009-10-17T10:44:33.000Z</time>
</trkpt>
<trkpt lat="31.7317200" lon="35.0458500">
<ele>572.899963</ele>
<time>2009-10-17T10:44:38.000Z</time>
</trkpt>
<trkpt lat="31.7317800" lon="35.0458300">
<ele>572.400024</ele>
<time>2009-10-17T10:44:40.000Z</time>
</trkpt>
<trkpt lat="31.7318800" lon="35.0457800">
<ele>572.000000</ele>
<time>2009-10-17T10:44:41.000Z</time>
</trkpt>
<trkpt lat="31.7322700" lon="35.0455500">
<ele>570.599976</ele>
<time>2009-10-17T10:44:49.000Z</time>
</trkpt>
<trkpt lat="31.7324700" lon="35.0453400">
<ele>570.100037</ele>
<time>2009-10-17T10:44:53.000Z</time>
</trkpt>
<trkpt lat="31.7326800" lon="35.0450800">
<ele>570.799988</ele>
<time>2009-10-17T10:45:00.000Z</time>
</trkpt>
<trkpt lat="31.7328000" lon="35.0449600">
<ele>570.599976</ele>
<time>2009-10-17T10:45:03.000Z</time>
</trkpt>
<trkpt lat="31.7332300" lon="35.0445000">
<ele>566.400024</ele>
<time>2009-10-17T10:45:14.000Z</time>
</trkpt>
<trkpt lat="31.7333800" lon="35.0443200">
<ele>563.600037</ele>
<time>2009-10-17T10:45:18.000Z</time>
</trkpt>
<trkpt lat="31.7335200" lon="35.0440700">
<ele>561.599976</ele>
<time>2009-10-17T10:45:23.000Z</time>
</trkpt>
<trkpt lat="31.7335800" lon="35.0439700">
<ele>560.600037</ele>
<time>2009-10-17T10:45:24.000Z</time>
</trkpt>
<trkpt lat="31.7337400" lon="35.0434800">
<ele>557.299988</ele>
<time>2009-10-17T10:45:32.000Z</time>
</trkpt>
<trkpt lat="31.7337800" lon="35.0431200">
<ele>556.900024</ele>
<time>2009-10-17T10:45:39.000Z</time>
</trkpt>
<trkpt lat="31.7338200" lon="35.0428600">
<ele>556.400024</ele>
<time>2009-10-17T10:45:43.000Z</time>
</trkpt>
<trkpt lat="31.7338500" lon="35.0427300">
<ele>555.599976</ele>
<time>2009-10-17T10:45:45.000Z</time>
</trkpt>
<trkpt lat="31.7339400" lon="35.0422600">
<ele>553.000000</ele>
<time>2009-10-17T10:45:54.000Z</time>
</trkpt>
<trkpt lat="31.7340600" lon="35.0413000">
<ele>547.899963</ele>
<time>2009-10-17T10:46:12.000Z</time>
</trkpt>
<trkpt lat="31.7340000" lon="35.0407900">
<ele>545.000000</ele>
<time>2009-10-17T10:46:21.000Z</time>
</trkpt>
<trkpt lat="31.7339600" lon="35.0404200">
<ele>542.299988</ele>
<time>2009-10-17T10:46:30.000Z</time>
</trkpt>
<trkpt lat="31.7337800" lon="35.0399500">
<ele>537.400024</ele>
<time>2009-10-17T10:46:44.000Z</time>
</trkpt>
<trkpt lat="31.7335600" lon="35.0395000">
<ele>538.000000</ele>
<time>2009-10-17T10:46:55.000Z</time>
</trkpt>
<trkpt lat="31.7335300" lon="35.0392500">
<ele>537.299988</ele>
<time>2009-10-17T10:47:00.000Z</time>
</trkpt>
<trkpt lat="31.7333300" lon="35.0387700">
<ele>535.700012</ele>
<time>2009-10-17T10:47:11.000Z</time>
</trkpt>
<trkpt lat="31.7332600" lon="35.0386600">
<ele>535.399963</ele>
<time>2009-10-17T10:47:12.000Z</time>
</trkpt>
<trkpt lat="31.7332300" lon="35.0383500">
<ele>533.400024</ele>
<time>2009-10-17T10:47:22.000Z</time>
</trkpt>
<trkpt lat="31.7332400" lon="35.0383000">
<ele>533.099976</ele>
<time>2009-10-17T10:47:24.000Z</time>
</trkpt>
<trkpt lat="31.7332600" lon="35.0380200">
<ele>531.599976</ele>
<time>2009-10-17T10:47:38.000Z</time>
</trkpt>
<trkpt lat="31.7332400" lon="35.0377400">
<ele>535.500000</ele>
<time>2009-10-17T10:47:54.000Z</time>
</trkpt>
<trkpt lat="31.7332100" lon="35.0376500">
<ele>537.400024</ele>
<time>2009-10-17T10:48:01.000Z</time>
</trkpt>
<trkpt lat="31.7331200" lon="35.0374500">
<ele>541.500000</ele>
<time>2009-10-17T10:48:17.000Z</time>
</trkpt>
<trkpt lat="31.7329800" lon="35.0372500">
<ele>545.000000</ele>
<time>2009-10-17T10:48:32.000Z</time>
</trkpt>
<trkpt lat="31.7327300" lon="35.0370900">
<ele>545.900024</ele>
<time>2009-10-17T10:48:48.000Z</time>
</trkpt>
<trkpt lat="31.7323900" lon="35.0370200">
<ele>542.500000</ele>
<time>2009-10-17T10:51:07.000Z</time>
</trkpt>
<trkpt lat="31.7318100" lon="35.0368100">
<ele>537.299988</ele>
<time>2009-10-17T10:51:18.000Z</time>
</trkpt>
<trkpt lat="31.7311400" lon="35.0365300">
<ele>528.599976</ele>
<time>2009-10-17T10:51:34.000Z</time>
</trkpt>
<trkpt lat="31.7309700" lon="35.0364400">
<ele>526.200012</ele>
<time>2009-10-17T10:51:38.000Z</time>
</trkpt>
<trkpt lat="31.7307800" lon="35.0362800">
<ele>522.599976</ele>
<time>2009-10-17T10:51:45.000Z</time>
</trkpt>
<trkpt lat="31.7307400" lon="35.0362400">
<ele>521.700012</ele>
<time>2009-10-17T10:51:45.000Z</time>
</trkpt>
<trkpt lat="31.7306000" lon="35.0361000">
<ele>520.700012</ele>
<time>2009-10-17T10:51:50.000Z</time>
</trkpt>
<trkpt lat="31.7304900" lon="35.0360100">
<ele>519.400024</ele>
<time>2009-10-17T10:51:53.000Z</time>
</trkpt>
<trkpt lat="31.7302900" lon="35.0357800">
<ele>520.000000</ele>
<time>2009-10-17T10:52:00.000Z</time>
</trkpt>
<trkpt lat="31.7302200" lon="35.0357000">
<ele>519.899963</ele>
<time>2009-10-17T10:52:01.000Z</time>
</trkpt>
<trkpt lat="31.7297700" lon="35.0352700">
<ele>513.500000</ele>
<time>2009-10-17T10:52:12.000Z</time>
</trkpt>
<trkpt lat="31.7296700" lon="35.0352000">
<ele>511.600006</ele>
<time>2009-10-17T10:52:15.000Z</time>
</trkpt>
<trkpt lat="31.7292500" lon="35.0349500">
<ele>505.800018</ele>
<time>2009-10-17T10:52:23.000Z</time>
</trkpt>
<trkpt lat="31.7290000" lon="35.0346600">
<ele>501.300018</ele>
<time>2009-10-17T10:52:28.000Z</time>
</trkpt>
<trkpt lat="31.7288500" lon="35.0344300">
<ele>498.600006</ele>
<time>2009-10-17T10:52:32.000Z</time>
</trkpt>
<trkpt lat="31.7287200" lon="35.0342100">
<ele>497.800018</ele>
<time>2009-10-17T10:52:36.000Z</time>
</trkpt>
<trkpt lat="31.7287000" lon="35.0341600">
<ele>498.299988</ele>
<time>2009-10-17T10:52:38.000Z</time>
</trkpt>
<trkpt lat="31.7286000" lon="35.0339800">
<ele>498.899994</ele>
<time>2009-10-17T10:52:42.000Z</time>
</trkpt>
<trkpt lat="31.7285100" lon="35.0338700">
<ele>498.100006</ele>
<time>2009-10-17T10:52:44.000Z</time>
</trkpt>
<trkpt lat="31.7284500" lon="35.0337900">
<ele>497.100006</ele>
<time>2009-10-17T10:52:47.000Z</time>
</trkpt>
<trkpt lat="31.7282500" lon="35.0335600">
<ele>494.500000</ele>
<time>2009-10-17T10:52:53.000Z</time>
</trkpt>
<trkpt lat="31.7281300" lon="35.0334500">
<ele>492.100006</ele>
<time>2009-10-17T10:52:55.000Z</time>
</trkpt>
<trkpt lat="31.7280500" lon="35.0333600">
<ele>490.199982</ele>
<time>2009-10-17T10:52:58.000Z</time>
</trkpt>
<trkpt lat="31.7279800" lon="35.0332600">
<ele>488.300018</ele>
<time>2009-10-17T10:52:59.000Z</time>
</trkpt>
<trkpt lat="31.7274700" lon="35.0325300">
<ele>482.900024</ele>
<time>2009-10-17T10:53:14.000Z</time>
</trkpt>
<trkpt lat="31.7273500" lon="35.0322500">
<ele>481.400024</ele>
<time>2009-10-17T10:53:21.000Z</time>
</trkpt>
<trkpt lat="31.7273000" lon="35.0319900">
<ele>480.299988</ele>
<time>2009-10-17T10:53:25.000Z</time>
</trkpt>
<trkpt lat="31.7273000" lon="35.0317600">
<ele>479.300018</ele>
<time>2009-10-17T10:53:29.000Z</time>
</trkpt>
<trkpt lat="31.7273200" lon="35.0315400">
<ele>478.899994</ele>
<time>2009-10-17T10:53:33.000Z</time>
</trkpt>
<trkpt lat="31.7273000" lon="35.0313800">
<ele>477.699982</ele>
<time>2009-10-17T10:53:37.000Z</time>
</trkpt>
<trkpt lat="31.7272900" lon="35.0309600">
<ele>474.100006</ele>
<time>2009-10-17T10:53:44.000Z</time>
</trkpt>
<trkpt lat="31.7272900" lon="35.0308800">
<ele>473.300018</ele>
<time>2009-10-17T10:53:45.000Z</time>
</trkpt>
<trkpt lat="31.7273300" lon="35.0306400">
<ele>472.000000</ele>
<time>2009-10-17T10:53:48.000Z</time>
</trkpt>
<trkpt lat="31.7274300" lon="35.0302100">
<ele>470.400024</ele>
<time>2009-10-17T10:53:53.000Z</time>
</trkpt>
<trkpt lat="31.7275000" lon="35.0300300">
<ele>470.299988</ele>
<time>2009-10-17T10:53:56.000Z</time>
</trkpt>
<trkpt lat="31.7275500" lon="35.0295100">
<ele>465.999969</ele>
<time>2009-10-17T10:54:08.000Z</time>
</trkpt>
<trkpt lat="31.7276500" lon="35.0292800">
<ele>466.200012</ele>
<time>2009-10-17T10:54:19.000Z</time>
</trkpt>
<trkpt lat="31.7278100" lon="35.0290800">
<ele>468.000000</ele>
<time>2009-10-17T10:54:35.000Z</time>
</trkpt>
<trkpt lat="31.7279500" lon="35.0288500">
<ele>469.599976</ele>
<time>2009-10-17T10:54:53.000Z</time>
</trkpt>
<trkpt lat="31.7280400" lon="35.0286000">
<ele>472.599976</ele>
<time>2009-10-17T10:55:10.000Z</time>
</trkpt>
<trkpt lat="31.7281100" lon="35.0283400">
<ele>476.000000</ele>
<time>2009-10-17T10:55:28.000Z</time>
</trkpt>
<trkpt lat="31.7281600" lon="35.0281600">
<ele>478.299988</ele>
<time>2009-10-17T10:55:40.000Z</time>
</trkpt>
<trkpt lat="31.7282100" lon="35.0279000">
<ele>480.599976</ele>
<time>2009-10-17T10:55:59.000Z</time>
</trkpt>
<trkpt lat="31.7282000" lon="35.0276300">
<ele>479.000000</ele>
<time>2009-10-17T10:56:19.000Z</time>
</trkpt>
<trkpt lat="31.7281900" lon="35.0275200">
<ele>478.100006</ele>
<time>2009-10-17T10:56:26.000Z</time>
</trkpt>
<trkpt lat="31.7281600" lon="35.0274900">
<ele>476.600006</ele>
<time>2009-10-17T10:56:35.000Z</time>
</trkpt>
<trkpt lat="31.7281600" lon="35.0274900">
<ele>476.600006</ele>
<time>2009-10-17T10:57:54.000Z</time>
</trkpt>
<trkpt lat="31.7280800" lon="35.0273200">
<ele>472.299988</ele>
<time>2009-10-17T10:59:00.000Z</time>
</trkpt>
<trkpt lat="31.7280400" lon="35.0272000">
<ele>470.000000</ele>
<time>2009-10-17T10:59:02.000Z</time>
</trkpt>
<trkpt lat="31.7280600" lon="35.0270200">
<ele>470.000000</ele>
<time>2009-10-17T10:59:06.000Z</time>
</trkpt>
<trkpt lat="31.7281400" lon="35.0265400">
<ele>470.500000</ele>
<time>2009-10-17T10:59:24.000Z</time>
</trkpt>
<trkpt lat="31.7281400" lon="35.0263100">
<ele>469.000000</ele>
<time>2009-10-17T10:59:28.000Z</time>
</trkpt>
<trkpt lat="31.7282300" lon="35.0259900">
<ele>470.799988</ele>
<time>2009-10-17T10:59:38.000Z</time>
</trkpt>
<trkpt lat="31.7283700" lon="35.0257800">
<ele>475.500031</ele>
<time>2009-10-17T10:59:54.000Z</time>
</trkpt>
<trkpt lat="31.7284700" lon="35.0254600">
<ele>477.800018</ele>
<time>2009-10-17T11:00:11.000Z</time>
</trkpt>
<trkpt lat="31.7285100" lon="35.0251200">
<ele>479.699982</ele>
<time>2009-10-17T11:00:27.000Z</time>
</trkpt>
<trkpt lat="31.7285900" lon="35.0248500">
<ele>484.000000</ele>
<time>2009-10-17T11:00:45.000Z</time>
</trkpt>
<trkpt lat="31.7286100" lon="35.0247700">
<ele>485.200012</ele>
<time>2009-10-17T11:00:52.000Z</time>
</trkpt>
<trkpt lat="31.7286500" lon="35.0245000">
<ele>487.899994</ele>
<time>2009-10-17T11:01:11.000Z</time>
</trkpt>
<trkpt lat="31.7286300" lon="35.0241800">
<ele>487.600006</ele>
<time>2009-10-17T11:01:28.000Z</time>
</trkpt>
<trkpt lat="31.7286500" lon="35.0239200">
<ele>489.299988</ele>
<time>2009-10-17T11:01:44.000Z</time>
</trkpt>
<trkpt lat="31.7287000" lon="35.0238400">
<ele>492.100006</ele>
<time>2009-10-17T11:01:53.000Z</time>
</trkpt>
<trkpt lat="31.7287700" lon="35.0238400">
<ele>495.299988</ele>
<time>2009-10-17T11:07:54.000Z</time>
</trkpt>
<trkpt lat="31.7288200" lon="35.0238700">
<ele>496.500000</ele>
<time>2009-10-17T11:08:23.000Z</time>
</trkpt>
<trkpt lat="31.7289300" lon="35.0239600">
<ele>499.100006</ele>
<time>2009-10-17T11:08:43.000Z</time>
</trkpt>
<trkpt lat="31.7290300" lon="35.0240400">
<ele>501.600006</ele>
<time>2009-10-17T11:08:59.000Z</time>
</trkpt>
<trkpt lat="31.7291600" lon="35.0240500">
<ele>504.999969</ele>
<time>2009-10-17T11:09:19.000Z</time>
</trkpt>
<trkpt lat="31.7292300" lon="35.0238800">
<ele>507.000000</ele>
<time>2009-10-17T11:09:38.000Z</time>
</trkpt>
<trkpt lat="31.7292800" lon="35.0237200">
<ele>508.200012</ele>
<time>2009-10-17T11:09:57.000Z</time>
</trkpt>
<trkpt lat="31.7292700" lon="35.0236400">
<ele>507.500000</ele>
<time>2009-10-17T11:10:04.000Z</time>
</trkpt>
<trkpt lat="31.7293100" lon="35.0232900">
<ele>506.299988</ele>
<time>2009-10-17T11:10:21.000Z</time>
</trkpt>
<trkpt lat="31.7293300" lon="35.0232100">
<ele>506.199982</ele>
<time>2009-10-17T11:10:36.000Z</time>
</trkpt>
<trkpt lat="31.7293300" lon="35.0230400">
<ele>505.100006</ele>
<time>2009-10-17T11:19:00.000Z</time>
</trkpt>
<trkpt lat="31.7292500" lon="35.0227700">
<ele>500.800018</ele>
<time>2009-10-17T11:19:08.000Z</time>
</trkpt>
<trkpt lat="31.7292800" lon="35.0225400">
<ele>497.399994</ele>
<time>2009-10-17T11:19:20.000Z</time>
</trkpt>
<trkpt lat="31.7292900" lon="35.0225000">
<ele>496.900024</ele>
<time>2009-10-17T11:19:23.000Z</time>
</trkpt>
<trkpt lat="31.7293700" lon="35.0223600">
<ele>495.100006</ele>
<time>2009-10-17T11:19:30.000Z</time>
</trkpt>
<trkpt lat="31.7293600" lon="35.0221200">
<ele>490.799988</ele>
<time>2009-10-17T11:19:39.000Z</time>
</trkpt>
<trkpt lat="31.7292800" lon="35.0219200">
<ele>487.000000</ele>
<time>2009-10-17T11:19:47.000Z</time>
</trkpt>
<trkpt lat="31.7292300" lon="35.0218500">
<ele>485.600006</ele>
<time>2009-10-17T11:19:51.000Z</time>
</trkpt>
<trkpt lat="31.7291700" lon="35.0217600">
<ele>483.899994</ele>
<time>2009-10-17T11:19:55.000Z</time>
</trkpt>
<trkpt lat="31.7289900" lon="35.0215000">
<ele>479.199982</ele>
<time>2009-10-17T11:20:06.000Z</time>
</trkpt>
<trkpt lat="31.7288800" lon="35.0213400">
<ele>476.500000</ele>
<time>2009-10-17T11:20:14.000Z</time>
</trkpt>
<trkpt lat="31.7288800" lon="35.0212500">
<ele>475.000000</ele>
<time>2009-10-17T11:20:18.000Z</time>
</trkpt>
<trkpt lat="31.7289000" lon="35.0212000">
<ele>474.000031</ele>
<time>2009-10-17T11:20:22.000Z</time>
</trkpt>
<trkpt lat="31.7289800" lon="35.0211200">
<ele>472.500000</ele>
<time>2009-10-17T11:20:29.000Z</time>
</trkpt>
<trkpt lat="31.7291400" lon="35.0210100">
<ele>470.299988</ele>
<time>2009-10-17T11:20:37.000Z</time>
</trkpt>
<trkpt lat="31.7291800" lon="35.0209700">
<ele>469.500000</ele>
<time>2009-10-17T11:20:40.000Z</time>
</trkpt>
<trkpt lat="31.7291900" lon="35.0208800">
<ele>467.700012</ele>
<time>2009-10-17T11:20:42.000Z</time>
</trkpt>
<trkpt lat="31.7290400" lon="35.0207400">
<ele>465.000000</ele>
<time>2009-10-17T11:20:51.000Z</time>
</trkpt>
<trkpt lat="31.7289500" lon="35.0205400">
<ele>461.200012</ele>
<time>2009-10-17T11:21:00.000Z</time>
</trkpt>
<trkpt lat="31.7289500" lon="35.0204800">
<ele>460.000000</ele>
<time>2009-10-17T11:21:04.000Z</time>
</trkpt>
<trkpt lat="31.7289400" lon="35.0203600">
<ele>458.100006</ele>
<time>2009-10-17T11:21:11.000Z</time>
</trkpt>
<trkpt lat="31.7289600" lon="35.0200500">
<ele>454.699982</ele>
<time>2009-10-17T11:21:27.000Z</time>
</trkpt>
<trkpt lat="31.7289900" lon="35.0198500">
<ele>452.399994</ele>
<time>2009-10-17T11:21:35.000Z</time>
</trkpt>
<trkpt lat="31.7290000" lon="35.0197000">
<ele>450.700012</ele>
<time>2009-10-17T11:21:47.000Z</time>
</trkpt>
<trkpt lat="31.7290200" lon="35.0196400">
<ele>450.000000</ele>
<time>2009-10-17T11:22:01.000Z</time>
</trkpt>
<trkpt lat="31.7290100" lon="35.0193900">
<ele>447.399994</ele>
<time>2009-10-17T11:22:17.000Z</time>
</trkpt>
<trkpt lat="31.7290600" lon="35.0192400">
<ele>445.700012</ele>
<time>2009-10-17T11:22:25.000Z</time>
</trkpt>
<trkpt lat="31.7292200" lon="35.0190700">
<ele>443.699982</ele>
<time>2009-10-17T11:22:37.000Z</time>
</trkpt>
<trkpt lat="31.7292900" lon="35.0187400">
<ele>440.199982</ele>
<time>2009-10-17T11:22:48.000Z</time>
</trkpt>
<trkpt lat="31.7292800" lon="35.0186800">
<ele>439.499969</ele>
<time>2009-10-17T11:22:49.000Z</time>
</trkpt>
<trkpt lat="31.7294500" lon="35.0184400">
<ele>436.899994</ele>
<time>2009-10-17T11:22:59.000Z</time>
</trkpt>
<trkpt lat="31.7295400" lon="35.0183400">
<ele>436.000000</ele>
<time>2009-10-17T11:23:02.000Z</time>
</trkpt>
<trkpt lat="31.7295700" lon="35.0183100">
<ele>435.699982</ele>
<time>2009-10-17T11:23:03.000Z</time>
</trkpt>
<trkpt lat="31.7296300" lon="35.0182300">
<ele>434.500000</ele>
<time>2009-10-17T11:23:04.000Z</time>
</trkpt>
<trkpt lat="31.7296900" lon="35.0181600">
<ele>433.200012</ele>
<time>2009-10-17T11:23:07.000Z</time>
</trkpt>
<trkpt lat="31.7298000" lon="35.0178400">
<ele>428.399994</ele>
<time>2009-10-17T11:23:16.000Z</time>
</trkpt>
<trkpt lat="31.7301300" lon="35.0176600">
<ele>422.399994</ele>
<time>2009-10-17T11:23:29.000Z</time>
</trkpt>
<trkpt lat="31.7302700" lon="35.0175600">
<ele>419.800018</ele>
<time>2009-10-17T11:23:34.000Z</time>
</trkpt>
<trkpt lat="31.7304300" lon="35.0175300">
<ele>418.300018</ele>
<time>2009-10-17T11:23:42.000Z</time>
</trkpt>
<trkpt lat="31.7307300" lon="35.0174600">
<ele>414.299988</ele>
<time>2009-10-17T11:23:54.000Z</time>
</trkpt>
<trkpt lat="31.7308900" lon="35.0171500">
<ele>409.299988</ele>
<time>2009-10-17T11:24:01.000Z</time>
</trkpt>
<trkpt lat="31.7307600" lon="35.0167900">
<ele>404.600006</ele>
<time>2009-10-17T11:24:12.000Z</time>
</trkpt>
<trkpt lat="31.7306700" lon="35.0166800">
<ele>403.400024</ele>
<time>2009-10-17T11:24:27.000Z</time>
</trkpt>
<trkpt lat="31.7305500" lon="35.0165600">
<ele>402.200012</ele>
<time>2009-10-17T11:24:37.000Z</time>
</trkpt>
<trkpt lat="31.7304700" lon="35.0163600">
<ele>399.500000</ele>
<time>2009-10-17T11:24:45.000Z</time>
</trkpt>
<trkpt lat="31.7305100" lon="35.0161900">
<ele>396.699982</ele>
<time>2009-10-17T11:24:52.000Z</time>
</trkpt>
<trkpt lat="31.7306700" lon="35.0160000">
<ele>393.600006</ele>
<time>2009-10-17T11:24:59.000Z</time>
</trkpt>
<trkpt lat="31.7308800" lon="35.0158900">
<ele>390.699982</ele>
<time>2009-10-17T11:25:07.000Z</time>
</trkpt>
<trkpt lat="31.7311700" lon="35.0158500">
<ele>387.899994</ele>
<time>2009-10-17T11:25:21.000Z</time>
</trkpt>
<trkpt lat="31.7312000" lon="35.0156900">
<ele>385.699982</ele>
<time>2009-10-17T11:25:27.000Z</time>
</trkpt>
<trkpt lat="31.7311200" lon="35.0155600">
<ele>384.899994</ele>
<time>2009-10-17T11:25:34.000Z</time>
</trkpt>
<trkpt lat="31.7310200" lon="35.0152700">
<ele>382.200012</ele>
<time>2009-10-17T11:25:48.000Z</time>
</trkpt>
<trkpt lat="31.7310200" lon="35.0151600">
<ele>380.700012</ele>
<time>2009-10-17T11:25:52.000Z</time>
</trkpt>
<trkpt lat="31.7310600" lon="35.0150700">
<ele>379.200012</ele>
<time>2009-10-17T11:25:56.000Z</time>
</trkpt>
<trkpt lat="31.7311100" lon="35.0149800">
<ele>377.500000</ele>
<time>2009-10-17T11:26:01.000Z</time>
</trkpt>
<trkpt lat="31.7311900" lon="35.0149000">
<ele>375.700012</ele>
<time>2009-10-17T11:26:06.000Z</time>
</trkpt>
<trkpt lat="31.7312300" lon="35.0148800">
<ele>375.100006</ele>
<time>2009-10-17T11:26:09.000Z</time>
</trkpt>
<trkpt lat="31.7313500" lon="35.0148000">
<ele>372.200012</ele>
<time>2009-10-17T11:26:19.000Z</time>
</trkpt>
<trkpt lat="31.7314800" lon="35.0145400">
<ele>366.599976</ele>
<time>2009-10-17T11:26:31.000Z</time>
</trkpt>
<trkpt lat="31.7315300" lon="35.0144000">
<ele>363.899994</ele>
<time>2009-10-17T11:26:36.000Z</time>
</trkpt>
<trkpt lat="31.7315500" lon="35.0142800">
<ele>362.099976</ele>
<time>2009-10-17T11:26:40.000Z</time>
</trkpt>
<trkpt lat="31.7315700" lon="35.0141400">
<ele>359.899994</ele>
<time>2009-10-17T11:26:47.000Z</time>
</trkpt>
<trkpt lat="31.7315800" lon="35.0140300">
<ele>358.299988</ele>
<time>2009-10-17T11:26:51.000Z</time>
</trkpt>
<trkpt lat="31.7315900" lon="35.0136200">
<ele>353.199982</ele>
<time>2009-10-17T11:27:06.000Z</time>
</trkpt>
<trkpt lat="31.7315900" lon="35.0135000">
<ele>351.899994</ele>
<time>2009-10-17T11:27:10.000Z</time>
</trkpt>
<trkpt lat="31.7316000" lon="35.0133300">
<ele>350.000000</ele>
<time>2009-10-17T11:27:22.000Z</time>
</trkpt>
<trkpt lat="31.7316400" lon="35.0132100">
<ele>348.000000</ele>
<time>2009-10-17T11:27:27.000Z</time>
</trkpt>
<trkpt lat="31.7316700" lon="35.0131100">
<ele>346.399994</ele>
<time>2009-10-17T11:27:30.000Z</time>
</trkpt>
<trkpt lat="31.7316900" lon="35.0130100">
<ele>345.000000</ele>
<time>2009-10-17T11:27:33.000Z</time>
</trkpt>
<trkpt lat="31.7317400" lon="35.0127900">
<ele>341.000000</ele>
<time>2009-10-17T11:27:37.000Z</time>
</trkpt>
<trkpt lat="31.7317200" lon="35.0124600">
<ele>336.200012</ele>
<time>2009-10-17T11:27:44.000Z</time>
</trkpt>
<trkpt lat="31.7316700" lon="35.0121300">
<ele>331.700012</ele>
<time>2009-10-17T11:27:54.000Z</time>
</trkpt>
<trkpt lat="31.7316400" lon="35.0120400">
<ele>330.700012</ele>
<time>2009-10-17T11:28:20.000Z</time>
</trkpt>
<trkpt lat="31.7315600" lon="35.0118500">
<ele>328.700012</ele>
<time>2009-10-17T11:28:28.000Z</time>
</trkpt>
<trkpt lat="31.7315400" lon="35.0117500">
<ele>327.299988</ele>
<time>2009-10-17T11:28:31.000Z</time>
</trkpt>
<trkpt lat="31.7315500" lon="35.0116800">
<ele>326.000000</ele>
<time>2009-10-17T11:28:32.000Z</time>
</trkpt>
<trkpt lat="31.7315400" lon="35.0115200">
<ele>323.400024</ele>
<time>2009-10-17T11:28:36.000Z</time>
</trkpt>
<trkpt lat="31.7315100" lon="35.0114300">
<ele>322.200012</ele>
<time>2009-10-17T11:28:39.000Z</time>
</trkpt>
<trkpt lat="31.7314600" lon="35.0111900">
<ele>318.799988</ele>
<time>2009-10-17T11:28:43.000Z</time>
</trkpt>
<trkpt lat="31.7314200" lon="35.0110800">
<ele>317.700012</ele>
<time>2009-10-17T11:28:46.000Z</time>
</trkpt>
<trkpt lat="31.7313100" lon="35.0107800">
<ele>314.899994</ele>
<time>2009-10-17T11:28:53.000Z</time>
</trkpt>
<trkpt lat="31.7313100" lon="35.0106500">
<ele>313.399994</ele>
<time>2009-10-17T11:28:55.000Z</time>
</trkpt>
<trkpt lat="31.7312900" lon="35.0104700">
<ele>311.399994</ele>
<time>2009-10-17T11:28:58.000Z</time>
</trkpt>
<trkpt lat="31.7312600" lon="35.0101500">
<ele>306.500000</ele>
<time>2009-10-17T11:29:03.000Z</time>
</trkpt>
<trkpt lat="31.7312400" lon="35.0098400">
<ele>301.300018</ele>
<time>2009-10-17T11:29:07.000Z</time>
</trkpt>
<trkpt lat="31.7312400" lon="35.0097700">
<ele>300.200012</ele>
<time>2009-10-17T11:29:09.000Z</time>
</trkpt>
<trkpt lat="31.7312500" lon="35.0096300">
<ele>297.799988</ele>
<time>2009-10-17T11:29:10.000Z</time>
</trkpt>
<trkpt lat="31.7312400" lon="35.0094900">
<ele>295.899994</ele>
<time>2009-10-17T11:29:13.000Z</time>
</trkpt>
<trkpt lat="31.7312000" lon="35.0092400">
<ele>293.000000</ele>
<time>2009-10-17T11:29:17.000Z</time>
</trkpt>
<trkpt lat="31.7311500" lon="35.0090600">
<ele>291.100006</ele>
<time>2009-10-17T11:29:20.000Z</time>
</trkpt>
<trkpt lat="31.7310400" lon="35.0086400">
<ele>287.700012</ele>
<time>2009-10-17T11:29:30.000Z</time>
</trkpt>
<trkpt lat="31.7310900" lon="35.0085700">
<ele>287.100006</ele>
<time>2009-10-17T11:34:45.000Z</time>
</trkpt>
<trkpt lat="31.7311100" lon="35.0083300">
<ele>285.800018</ele>
<time>2009-10-17T11:34:49.000Z</time>
</trkpt>
<trkpt lat="31.7309900" lon="35.0078400">
<ele>283.899994</ele>
<time>2009-10-17T11:34:58.000Z</time>
</trkpt>
<trkpt lat="31.7310600" lon="35.0074800">
<ele>280.399994</ele>
<time>2009-10-17T11:35:06.000Z</time>
</trkpt>
<trkpt lat="31.7312400" lon="35.0072300">
<ele>278.100006</ele>
<time>2009-10-17T11:35:13.000Z</time>
</trkpt>
<trkpt lat="31.7313300" lon="35.0070900">
<ele>276.600006</ele>
<time>2009-10-17T11:35:16.000Z</time>
</trkpt>
<trkpt lat="31.7313600" lon="35.0070400">
<ele>275.899994</ele>
<time>2009-10-17T11:35:17.000Z</time>
</trkpt>
<trkpt lat="31.7314700" lon="35.0067000">
<ele>271.800018</ele>
<time>2009-10-17T11:35:24.000Z</time>
</trkpt>
<trkpt lat="31.7315100" lon="35.0063700">
<ele>268.299988</ele>
<time>2009-10-17T11:35:31.000Z</time>
</trkpt>
<trkpt lat="31.7315200" lon="35.0063100">
<ele>267.600006</ele>
<time>2009-10-17T11:35:32.000Z</time>
</trkpt>
<trkpt lat="31.7316400" lon="35.0059800">
<ele>268.600006</ele>
<time>2009-10-17T11:35:36.000Z</time>
</trkpt>
<trkpt lat="31.7317500" lon="35.0058100">
<ele>269.199982</ele>
<time>2009-10-17T11:35:40.000Z</time>
</trkpt>
<trkpt lat="31.7319100" lon="35.0054900">
<ele>270.000000</ele>
<time>2009-10-17T11:35:50.000Z</time>
</trkpt>
<trkpt lat="31.7319300" lon="35.0050600">
<ele>273.399994</ele>
<time>2009-10-17T11:36:05.000Z</time>
</trkpt>
<trkpt lat="31.7318200" lon="35.0045200">
<ele>278.500000</ele>
<time>2009-10-17T11:36:25.000Z</time>
</trkpt>
<trkpt lat="31.7317700" lon="35.0042600">
<ele>279.000000</ele>
<time>2009-10-17T11:36:37.000Z</time>
</trkpt>
<trkpt lat="31.7316100" lon="35.0039400">
<ele>280.000000</ele>
<time>2009-10-17T11:36:56.000Z</time>
</trkpt>
<trkpt lat="31.7313900" lon="35.0037400">
<ele>281.200012</ele>
<time>2009-10-17T11:37:12.000Z</time>
</trkpt>
<trkpt lat="31.7311800" lon="35.0035300">
<ele>283.000000</ele>
<time>2009-10-17T11:37:28.000Z</time>
</trkpt>
<trkpt lat="31.7312000" lon="35.0033100">
<ele>283.399994</ele>
<time>2009-10-17T11:37:39.000Z</time>
</trkpt>
<trkpt lat="31.7312500" lon="35.0032500">
<ele>283.200012</ele>
<time>2009-10-17T11:37:43.000Z</time>
</trkpt>
<trkpt lat="31.7313600" lon="35.0031000">
<ele>283.000000</ele>
<time>2009-10-17T11:37:58.000Z</time>
</trkpt>
<trkpt lat="31.7314400" lon="35.0029700">
<ele>282.899994</ele>
<time>2009-10-17T11:38:42.000Z</time>
</trkpt>
<trkpt lat="31.7314800" lon="35.0029000">
<ele>283.000000</ele>
<time>2009-10-17T11:38:48.000Z</time>
</trkpt>
<trkpt lat="31.7315300" lon="35.0028300">
<ele>283.100006</ele>
<time>2009-10-17T11:39:04.000Z</time>
</trkpt>
<trkpt lat="31.7316100" lon="35.0027100">
<ele>283.299988</ele>
<time>2009-10-17T11:40:06.000Z</time>
</trkpt>
<trkpt lat="31.7318900" lon="35.0023100">
<ele>284.799988</ele>
<time>2009-10-17T11:40:25.000Z</time>
</trkpt>
<trkpt lat="31.7320900" lon="35.0020300">
<ele>286.500000</ele>
<time>2009-10-17T11:40:44.000Z</time>
</trkpt>
<trkpt lat="31.7322300" lon="35.0018100">
<ele>289.200012</ele>
<time>2009-10-17T11:41:00.000Z</time>
</trkpt>
<trkpt lat="31.7324200" lon="35.0015800">
<ele>291.700012</ele>
<time>2009-10-17T11:41:19.000Z</time>
</trkpt>
<trkpt lat="31.7325400" lon="35.0013700">
<ele>293.600006</ele>
<time>2009-10-17T11:41:34.000Z</time>
</trkpt>
<trkpt lat="31.7326600" lon="35.0011700">
<ele>300.299988</ele>
<time>2009-10-17T11:41:47.000Z</time>
</trkpt>
<trkpt lat="31.7327800" lon="35.0009900">
<ele>300.200012</ele>
<time>2009-10-17T11:42:02.000Z</time>
</trkpt>
<trkpt lat="31.7329900" lon="35.0007200">
<ele>299.500000</ele>
<time>2009-10-17T11:42:21.000Z</time>
</trkpt>
<trkpt lat="31.7332200" lon="35.0004300">
<ele>297.799988</ele>
<time>2009-10-17T11:42:36.000Z</time>
</trkpt>
<trkpt lat="31.7335700" lon="34.9999800">
<ele>291.700012</ele>
<time>2009-10-17T11:42:52.000Z</time>
</trkpt>
<trkpt lat="31.7339200" lon="34.9994000">
<ele>286.799988</ele>
<time>2009-10-17T11:43:03.000Z</time>
</trkpt>
<trkpt lat="31.7341000" lon="34.9988800">
<ele>285.600006</ele>
<time>2009-10-17T11:43:15.000Z</time>
</trkpt>
<trkpt lat="31.7342100" lon="34.9981500">
<ele>282.200012</ele>
<time>2009-10-17T11:43:25.000Z</time>
</trkpt>
<trkpt lat="31.7341700" lon="34.9975500">
<ele>279.200012</ele>
<time>2009-10-17T11:43:31.000Z</time>
</trkpt>
<trkpt lat="31.7341300" lon="34.9973700">
<ele>278.200012</ele>
<time>2009-10-17T11:43:34.000Z</time>
</trkpt>
<trkpt lat="31.7339700" lon="34.9965900">
<ele>274.200012</ele>
<time>2009-10-17T11:43:42.000Z</time>
</trkpt>
<trkpt lat="31.7337200" lon="34.9955000">
<ele>269.100006</ele>
<time>2009-10-17T11:43:54.000Z</time>
</trkpt>
<trkpt lat="31.7336400" lon="34.9950700">
<ele>266.899994</ele>
<time>2009-10-17T11:44:00.000Z</time>
</trkpt>
<trkpt lat="31.7336200" lon="34.9949900">
<ele>266.500000</ele>
<time>2009-10-17T11:44:01.000Z</time>
</trkpt>
<trkpt lat="31.7335000" lon="34.9941900">
<ele>263.299988</ele>
<time>2009-10-17T11:44:09.000Z</time>
</trkpt>
<trkpt lat="31.7334700" lon="34.9937300">
<ele>261.899994</ele>
<time>2009-10-17T11:44:16.000Z</time>
</trkpt>
<trkpt lat="31.7336300" lon="34.9933600">
<ele>260.500000</ele>
<time>2009-10-17T11:44:27.000Z</time>
</trkpt>
<trkpt lat="31.7336800" lon="34.9930100">
<ele>258.799988</ele>
<time>2009-10-17T11:44:40.000Z</time>
</trkpt>
<trkpt lat="31.7335600" lon="34.9929000">
<ele>259.100006</ele>
<time>2009-10-17T11:44:46.000Z</time>
</trkpt>
<trkpt lat="31.7334600" lon="34.9927200">
<ele>259.100006</ele>
<time>2009-10-17T11:44:51.000Z</time>
</trkpt>
<trkpt lat="31.7333600" lon="34.9924800">
<ele>259.000000</ele>
<time>2009-10-17T11:44:55.000Z</time>
</trkpt>
<trkpt lat="31.7333600" lon="34.9919000">
<ele>257.500000</ele>
<time>2009-10-17T11:45:06.000Z</time>
</trkpt>
<trkpt lat="31.7336000" lon="34.9913500">
<ele>253.500000</ele>
<time>2009-10-17T11:45:18.000Z</time>
</trkpt>
<trkpt lat="31.7340000" lon="34.9905100">
<ele>250.000000</ele>
<time>2009-10-17T11:45:33.000Z</time>
</trkpt>
<trkpt lat="31.7342300" lon="34.9899100">
<ele>248.300003</ele>
<time>2009-10-17T11:45:44.000Z</time>
</trkpt>
<trkpt lat="31.7347100" lon="34.9889600">
<ele>245.099991</ele>
<time>2009-10-17T11:45:59.000Z</time>
</trkpt>
<trkpt lat="31.7351400" lon="34.9880100">
<ele>241.900009</ele>
<time>2009-10-17T11:46:16.000Z</time>
</trkpt>
<trkpt lat="31.7352200" lon="34.9875500">
<ele>239.800003</ele>
<time>2009-10-17T11:46:24.000Z</time>
</trkpt>
<trkpt lat="31.7352200" lon="34.9874900">
<ele>239.500000</ele>
<time>2009-10-17T11:46:26.000Z</time>
</trkpt>
<trkpt lat="31.7351100" lon="34.9862900">
<ele>238.799988</ele>
<time>2009-10-17T11:46:43.000Z</time>
</trkpt>
<trkpt lat="31.7350100" lon="34.9849400">
<ele>236.000000</ele>
<time>2009-10-17T11:47:05.000Z</time>
</trkpt>
<trkpt lat="31.7349100" lon="34.9841100">
<ele>233.800003</ele>
<time>2009-10-17T11:47:22.000Z</time>
</trkpt>
<trkpt lat="31.7348200" lon="34.9831900">
<ele>231.900009</ele>
<time>2009-10-17T11:47:38.000Z</time>
</trkpt>
<trkpt lat="31.7348100" lon="34.9827500">
<ele>231.500015</ele>
<time>2009-10-17T11:47:48.000Z</time>
</trkpt>
<trkpt lat="31.7347800" lon="34.9821200">
<ele>230.199997</ele>
<time>2009-10-17T11:48:00.000Z</time>
</trkpt>
<trkpt lat="31.7347200" lon="34.9813600">
<ele>227.900009</ele>
<time>2009-10-17T11:48:27.000Z</time>
</trkpt>
<trkpt lat="31.7346400" lon="34.9809600">
<ele>226.899994</ele>
<time>2009-10-17T11:48:38.000Z</time>
</trkpt>
<trkpt lat="31.7346200" lon="34.9807600">
<ele>226.599991</ele>
<time>2009-10-17T11:48:41.000Z</time>
</trkpt>
<trkpt lat="31.7345800" lon="34.9805700">
<ele>226.199997</ele>
<time>2009-10-17T11:48:43.000Z</time>
</trkpt>
<trkpt lat="31.7345500" lon="34.9797100">
<ele>228.899994</ele>
<time>2009-10-17T11:48:57.000Z</time>
</trkpt>
<trkpt lat="31.7345600" lon="34.9795900">
<ele>229.199997</ele>
<time>2009-10-17T11:48:58.000Z</time>
</trkpt>
<trkpt lat="31.7348500" lon="34.9787600">
<ele>227.799988</ele>
<time>2009-10-17T11:49:13.000Z</time>
</trkpt>
<trkpt lat="31.7352400" lon="34.9779800">
<ele>223.000000</ele>
<time>2009-10-17T11:49:28.000Z</time>
</trkpt>
<trkpt lat="31.7352800" lon="34.9777200">
<ele>222.899994</ele>
<time>2009-10-17T11:49:33.000Z</time>
</trkpt>
<trkpt lat="31.7352600" lon="34.9772500">
<ele>224.399994</ele>
<time>2009-10-17T11:49:41.000Z</time>
</trkpt>
<trkpt lat="31.7353500" lon="34.9768900">
<ele>224.399994</ele>
<time>2009-10-17T11:49:48.000Z</time>
</trkpt>
<trkpt lat="31.7356800" lon="34.9761400">
<ele>224.900009</ele>
<time>2009-10-17T11:50:04.000Z</time>
</trkpt>
<trkpt lat="31.7358000" lon="34.9758900">
<ele>224.500015</ele>
<time>2009-10-17T11:50:08.000Z</time>
</trkpt>
<trkpt lat="31.7364000" lon="34.9751100">
<ele>221.899994</ele>
<time>2009-10-17T11:50:27.000Z</time>
</trkpt>
<trkpt lat="31.7370400" lon="34.9744800">
<ele>220.000000</ele>
<time>2009-10-17T11:50:43.000Z</time>
</trkpt>
<trkpt lat="31.7375500" lon="34.9737400">
<ele>219.100006</ele>
<time>2009-10-17T11:51:00.000Z</time>
</trkpt>
<trkpt lat="31.7377500" lon="34.9735400">
<ele>218.000000</ele>
<time>2009-10-17T11:51:05.000Z</time>
</trkpt>
<trkpt lat="31.7379000" lon="34.9734500">
<ele>216.900009</ele>
<time>2009-10-17T11:51:08.000Z</time>
</trkpt>
<trkpt lat="31.7385700" lon="34.9731300">
<ele>213.000000</ele>
<time>2009-10-17T11:51:21.000Z</time>
</trkpt>
<trkpt lat="31.7388400" lon="34.9730800">
<ele>211.899994</ele>
<time>2009-10-17T11:51:28.000Z</time>
</trkpt>
<trkpt lat="31.7389200" lon="34.9730900">
<ele>211.899994</ele>
<time>2009-10-17T11:51:29.000Z</time>
</trkpt>
<trkpt lat="31.7391100" lon="34.9731100">
<ele>212.000015</ele>
<time>2009-10-17T11:51:35.000Z</time>
</trkpt>
<trkpt lat="31.7394000" lon="34.9730800">
<ele>212.300003</ele>
<time>2009-10-17T11:51:50.000Z</time>
</trkpt>
</trkseg>
</trk>
</gpx>
